
Distance (Route):
Temperature : 9.4°C
Humidity : 63.7%
Pressure : 0hPa| Receiver | Frames | First received | Last received |
|---|---|---|---|
| KE7DJD | 439 | 2026-09-01 17:05:04 | 2026-09-01 19:40:39 |
| Receiver | Date | Latitude | Longitude | Direction | Speed | Altitude | Climb | Temperature | Humidity | Pressure | Voltage | Killtimer | Uptime | BKT | XDATA |
|---|---|---|---|---|---|---|---|---|---|---|---|---|---|---|---|
| KE7DJD | 2026-09-01 19:40:39 | 44.44339 | -115.88102 | 41° | 18km/h | 2813m | -4.7m/s | 9.4°C | 63.7% | 0hPa | 0V | 07:44:00 | 00:00:00 | 00:00:00 | |
| KE7DJD | 2026-09-01 19:40:17 | 44.44255 | -115.88160 | 18° | 18km/h | 2924m | -5.1m/s | 8.6°C | 66.9% | 0hPa | 0V | 07:44:00 | 00:00:00 | 00:00:00 | |
| KE7DJD | 2026-09-01 19:39:56 | 44.44164 | -115.88171 | 360° | 18km/h | 3026m | -4.9m/s | 7.6°C | 69.9% | 0hPa | 0V | 07:45:00 | 00:00:00 | 00:00:00 | |
| KE7DJD | 2026-09-01 19:39:36 | 44.44063 | -115.88140 | 343° | 26km/h | 3126m | -5.7m/s | 6.8°C | 71.9% | 0hPa | 0V | 07:45:00 | 00:00:00 | 00:00:00 | |
| KE7DJD | 2026-09-01 19:39:15 | 44.43919 | -115.88112 | 357° | 29km/h | 3234m | -4.7m/s | 5.8°C | 76.2% | 0hPa | 0V | 07:45:00 | 00:00:00 | 00:00:00 | |
| KE7DJD | 2026-09-01 19:38:55 | 44.43764 | -115.88097 | 361° | 35km/h | 3333m | -5.0m/s | 5.0°C | 77.6% | 0hPa | 0V | 07:46:00 | 00:00:00 | 00:00:00 | |
| KE7DJD | 2026-09-01 19:38:34 | 44.43576 | -115.88098 | 359° | 37km/h | 3438m | -5.2m/s | 4.1°C | 80.3% | 0hPa | 0V | 07:46:00 | 00:00:00 | 00:00:00 | |
| KE7DJD | 2026-09-01 19:38:13 | 44.43390 | -115.88084 | 359° | 33km/h | 3544m | -6.0m/s | 3.2°C | 82.1% | 0hPa | 0V | 07:47:00 | 00:00:00 | 00:00:00 | |
| KE7DJD | 2026-09-01 19:37:52 | 44.43209 | -115.88036 | 346° | 35km/h | 3659m | -5.6m/s | 2.0°C | 89.1% | 0hPa | 0V | 07:47:00 | 00:00:00 | 00:00:00 | |
| KE7DJD | 2026-09-01 19:37:31 | 44.42998 | -115.87958 | 349° | 42km/h | 3768m | -6.2m/s | 1.7°C | 84.2% | 0hPa | 0V | 07:47:00 | 00:00:00 | 00:00:00 | |
| KE7DJD | 2026-09-01 19:37:10 | 44.42739 | -115.87875 | 350° | 53km/h | 3886m | -5.7m/s | 0.9°C | 87.5% | 0hPa | 0V | 07:48:00 | 00:00:00 | 00:00:00 | |
| KE7DJD | 2026-09-01 19:36:50 | 44.42465 | -115.87783 | 346° | 58km/h | 4004m | -5.9m/s | 0.1°C | 84.2% | 0hPa | 0V | 07:48:00 | 00:00:00 | 00:00:00 | |
| KE7DJD | 2026-09-01 19:36:29 | 44.42164 | -115.87674 | 346° | 60km/h | 4132m | -6.3m/s | -0.6°C | 79.4% | 0hPa | 0V | 07:49:00 | 00:00:00 | 00:00:00 | |
| KE7DJD | 2026-09-01 19:36:08 | 44.41846 | -115.87590 | 352° | 60km/h | 4258m | -6.0m/s | -1.0°C | 75.7% | 0hPa | 0V | 07:49:00 | 00:00:00 | 00:00:00 | |
| KE7DJD | 2026-09-01 19:35:48 | 44.41529 | -115.87523 | 354° | 66km/h | 4379m | -6.0m/s | -1.9°C | 73.0% | 0hPa | 0V | 07:49:00 | 00:00:00 | 00:00:00 | |
| KE7DJD | 2026-09-01 19:35:27 | 44.41180 | -115.87467 | 356° | 66km/h | 4506m | -6.0m/s | -3.0°C | 79.6% | 0hPa | 0V | 07:50:00 | 00:00:00 | 00:00:00 | |
| KE7DJD | 2026-09-01 19:35:06 | 44.40817 | -115.87422 | 354° | 69km/h | 4633m | -5.9m/s | -3.9°C | 82.2% | 0hPa | 0V | 07:50:00 | 00:00:00 | 00:00:00 | |
| KE7DJD | 2026-09-01 19:34:45 | 44.40454 | -115.87354 | 351° | 66km/h | 4755m | -6.2m/s | -4.5°C | 80.2% | 0hPa | 0V | 07:50:00 | 00:00:00 | 00:00:00 | |
| KE7DJD | 2026-09-01 19:34:25 | 44.40124 | -115.87259 | 350° | 66km/h | 4874m | -6.2m/s | -5.5°C | 82.4% | 0hPa | 0V | 07:50:00 | 00:00:00 | 00:00:00 | |
| KE7DJD | 2026-09-01 19:34:04 | 44.39782 | -115.87152 | 349° | 64km/h | 4993m | -6.0m/s | -6.6°C | 86.7% | 0hPa | 0V | 07:50:00 | 00:00:00 | 00:00:00 | |
| KE7DJD | 2026-09-01 19:33:44 | 44.39490 | -115.87023 | 341° | 57km/h | 5107m | -5.8m/s | -7.4°C | 81.7% | 0hPa | 0V | 07:51:00 | 00:00:00 | 00:00:00 | |
| KE7DJD | 2026-09-01 19:33:23 | 44.39207 | -115.86863 | 336° | 58km/h | 5225m | -5.7m/s | -8.2°C | 78.8% | 0hPa | 0V | 07:51:00 | 00:00:00 | 00:00:00 | |
| KE7DJD | 2026-09-01 19:33:02 | 44.38932 | -115.86689 | 337° | 55km/h | 5341m | -5.5m/s | -9.3°C | 83.7% | 0hPa | 0V | 07:52:00 | 00:00:00 | 00:00:00 | |
| KE7DJD | 2026-09-01 19:32:41 | 44.38664 | -115.86523 | 336° | 57km/h | 5456m | -5.5m/s | -10.4°C | 89.3% | 0hPa | 0V | 07:52:00 | 00:00:00 | 00:00:00 | |
| KE7DJD | 2026-09-01 19:32:21 | 44.38409 | -115.86356 | 332° | 53km/h | 5565m | -5.1m/s | -11.3°C | 95.0% | 0hPa | 0V | 07:52:00 | 00:00:00 | 00:00:00 | |
| KE7DJD | 2026-09-01 19:32:00 | 44.38173 | -115.86172 | 333° | 49km/h | 5679m | -5.3m/s | -11.9°C | 93.9% | 0hPa | 0V | 07:53:00 | 00:00:00 | 00:00:00 | |
| KE7DJD | 2026-09-01 19:31:39 | 44.37930 | -115.85993 | 334° | 55km/h | 5794m | -5.7m/s | -12.8°C | 92.0% | 0hPa | 0V | 07:53:00 | 00:00:00 | 00:00:00 | |
| KE7DJD | 2026-09-01 19:31:18 | 44.37670 | -115.85829 | 337° | 53km/h | 5909m | -5.4m/s | -13.6°C | 83.8% | 0hPa | 0V | 07:54:00 | 00:00:00 | 00:00:00 | |
| KE7DJD | 2026-09-01 19:30:57 | 44.37417 | -115.85684 | 341° | 49km/h | 6024m | -5.4m/s | -14.5°C | 85.7% | 0hPa | 0V | 07:54:00 | 00:00:00 | 00:00:00 | |
| KE7DJD | 2026-09-01 19:30:36 | 44.37157 | -115.85558 | 344° | 55km/h | 6142m | -5.8m/s | -15.4°C | 81.6% | 0hPa | 0V | 07:55:00 | 00:00:00 | 00:00:00 | |
| KE7DJD | 2026-09-01 19:30:15 | 44.36881 | -115.85445 | 346° | 57km/h | 6264m | -5.9m/s | -16.6°C | 83.5% | 0hPa | 0V | 07:55:00 | 00:00:00 | 00:00:00 | |
| KE7DJD | 2026-09-01 19:29:54 | 44.36593 | -115.85358 | 349° | 58km/h | 6387m | -6.1m/s | -17.4°C | 88.8% | 0hPa | 0V | 07:55:00 | 00:00:00 | 00:00:00 | |
| KE7DJD | 2026-09-01 19:29:33 | 44.36276 | -115.85296 | 356° | 60km/h | 6510m | -6.0m/s | -17.9°C | 86.0% | 0hPa | 0V | 07:56:00 | 00:00:00 | 00:00:00 | |
| KE7DJD | 2026-09-01 19:28:32 | 44.35262 | -115.85252 | 358° | 69km/h | 6873m | -6.5m/s | -20.1°C | 77.3% | 0hPa | 0V | 07:56:00 | 00:00:00 | 00:00:00 | |
| KE7DJD | 2026-09-01 19:28:11 | 44.34888 | -115.85231 | 359° | 69km/h | 7003m | -6.2m/s | -21.2°C | 78.8% | 0hPa | 0V | 07:56:00 | 00:00:00 | 00:00:00 | |
| KE7DJD | 2026-09-01 19:27:50 | 44.34508 | -115.85243 | 4° | 75km/h | 7128m | -5.9m/s | -22.3°C | 82.6% | 0hPa | 0V | 07:57:00 | 00:00:00 | 00:00:00 | |
| KE7DJD | 2026-09-01 19:27:29 | 44.34127 | -115.85291 | 8° | 69km/h | 7255m | -6.4m/s | -22.6°C | 61.7% | 0hPa | 0V | 07:57:00 | 00:00:00 | 00:00:00 | |
| KE7DJD | 2026-09-01 19:27:09 | 44.33782 | -115.85353 | 8° | 68km/h | 7380m | -6.7m/s | -23.4°C | 53.6% | 0hPa | 0V | 07:58:00 | 00:00:00 | 00:00:00 | |
| KE7DJD | 2026-09-01 19:26:48 | 44.33434 | -115.85424 | 11° | 66km/h | 7520m | -6.6m/s | -24.5°C | 59.7% | 0hPa | 0V | 07:58:00 | 00:00:00 | 00:00:00 | |
| KE7DJD | 2026-09-01 19:26:27 | 44.33091 | -115.85499 | 8° | 62km/h | 7658m | -6.7m/s | -25.8°C | 66.5% | 0hPa | 0V | 07:58:00 | 00:00:00 | 00:00:00 | |
| KE7DJD | 2026-09-01 19:26:06 | 44.32760 | -115.85561 | 9° | 62km/h | 7801m | -6.6m/s | -26.7°C | 70.1% | 0hPa | 0V | 07:59:00 | 00:00:00 | 00:00:00 | |
| KE7DJD | 2026-09-01 19:25:46 | 44.32466 | -115.85633 | 12° | 57km/h | 7935m | -6.7m/s | -27.6°C | 69.2% | 0hPa | 0V | 07:59:00 | 00:00:00 | 00:00:00 | |
| KE7DJD | 2026-09-01 19:25:25 | 44.32168 | -115.85730 | 16° | 60km/h | 8077m | -7.0m/s | -28.7°C | 70.4% | 0hPa | 0V | 08:00:00 | 00:00:00 | 00:00:00 | |
| KE7DJD | 2026-09-01 19:25:05 | 44.31877 | -115.85865 | 19° | 60km/h | 8211m | -6.7m/s | -29.7°C | 70.5% | 0hPa | 0V | 08:00:00 | 00:00:00 | 00:00:00 | |
| KE7DJD | 2026-09-01 19:24:44 | 44.31588 | -115.86028 | 27° | 60km/h | 8351m | -6.9m/s | -30.5°C | 62.6% | 0hPa | 0V | 08:00:00 | 00:00:00 | 00:00:00 | |
| KE7DJD | 2026-09-01 19:24:24 | 44.31318 | -115.86205 | 26° | 60km/h | 8484m | -6.9m/s | -31.5°C | 61.3% | 0hPa | 0V | 08:01:00 | 00:00:00 | 00:00:00 | |
| KE7DJD | 2026-09-01 19:24:04 | 44.31052 | -115.86388 | 28° | 58km/h | 8620m | -6.9m/s | -32.5°C | 59.4% | 0hPa | 0V | 08:01:00 | 00:00:00 | 00:00:00 | |
| KE7DJD | 2026-09-01 19:23:43 | 44.30787 | -115.86587 | 29° | 55km/h | 8763m | -6.9m/s | -33.7°C | 60.9% | 0hPa | 0V | 08:01:00 | 00:00:00 | 00:00:00 | |
| KE7DJD | 2026-09-01 19:23:02 | 44.30295 | -115.86959 | 31° | 51km/h | 9051m | -7.1m/s | -36.1°C | 63.0% | 0hPa | 0V | 08:01:00 | 00:00:00 | 00:00:00 | |
| KE7DJD | 2026-09-01 19:22:42 | 44.30061 | -115.87139 | 32° | 51km/h | 9194m | -7.2m/s | -37.4°C | 62.8% | 0hPa | 0V | 08:02:00 | 00:00:00 | 00:00:00 | |
| KE7DJD | 2026-09-01 19:22:21 | 44.29821 | -115.87321 | 29° | 51km/h | 9347m | -7.3m/s | -38.6°C | 55.5% | 0hPa | 0V | 08:02:00 | 00:00:00 | 00:00:00 | |
| KE7DJD | 2026-09-01 19:22:01 | 44.29584 | -115.87479 | 24° | 55km/h | 9494m | -7.4m/s | -39.7°C | 53.9% | 0hPa | 0V | 08:03:00 | 00:00:00 | 00:00:00 | |
| KE7DJD | 2026-09-01 19:21:40 | 44.29292 | -115.87634 | 21° | 64km/h | 9645m | -7.2m/s | -41.0°C | 57.2% | 0hPa | 0V | 08:03:00 | 00:00:00 | 00:00:00 | |
| KE7DJD | 2026-09-01 19:21:19 | 44.28956 | -115.87788 | 19° | 73km/h | 9793m | -7.4m/s | -42.3°C | 52.5% | 0hPa | 0V | 08:03:00 | 00:00:00 | 00:00:00 | |
| KE7DJD | 2026-09-01 19:20:58 | 44.28586 | -115.87940 | 17° | 73km/h | 9944m | -7.6m/s | -43.5°C | 45.4% | 0hPa | 0V | 08:04:00 | 00:00:00 | 00:00:00 | |
| KE7DJD | 2026-09-01 19:20:38 | 44.28232 | -115.88066 | 12° | 71km/h | 10086m | -7.5m/s | -44.8°C | 49.6% | 0hPa | 0V | 08:04:00 | 00:00:00 | 00:00:00 | |
| KE7DJD | 2026-09-01 19:20:17 | 44.27859 | -115.88175 | 10° | 73km/h | 10236m | -7.1m/s | -46.2°C | 51.7% | 0hPa | 0V | 08:05:00 | 00:00:00 | 00:00:00 | |
| KE7DJD | 2026-09-01 19:19:56 | 44.27468 | -115.88270 | 9° | 78km/h | 10384m | -6.8m/s | -47.6°C | 59.5% | 0hPa | 0V | 08:05:00 | 00:00:00 | 00:00:00 | |
| KE7DJD | 2026-09-01 19:19:36 | 44.27075 | -115.88351 | 10° | 80km/h | 10527m | -7.0m/s | -48.8°C | 66.5% | 0hPa | 0V | 08:05:00 | 00:00:00 | 00:00:00 | |
| KE7DJD | 2026-09-01 19:19:15 | 44.26655 | -115.88451 | 10° | 84km/h | 10676m | -7.2m/s | -50.2°C | 67.5% | 0hPa | 0V | 08:06:00 | 00:00:00 | 00:00:00 | |
| KE7DJD | 2026-09-01 19:18:55 | 44.26234 | -115.88535 | 9° | 86km/h | 10821m | -7.2m/s | -51.5°C | 62.4% | 0hPa | 0V | 08:06:00 | 00:00:00 | 00:00:00 | |
| KE7DJD | 2026-09-01 19:18:34 | 44.25780 | -115.88610 | 8° | 88km/h | 10976m | -7.1m/s | -52.8°C | 67.3% | 0hPa | 0V | 08:07:00 | 00:00:00 | 00:00:00 | |
| KE7DJD | 2026-09-01 19:18:14 | 44.25346 | -115.88686 | 11° | 86km/h | 11123m | -7.5m/s | -54.1°C | 60.4% | 0hPa | 0V | 08:07:00 | 00:00:00 | 00:00:00 | |
| KE7DJD | 2026-09-01 19:17:53 | 44.24889 | -115.88818 | 13° | 88km/h | 11279m | -7.6m/s | -55.1°C | 52.0% | 0hPa | 0V | 08:07:00 | 00:00:00 | 00:00:00 | |
| KE7DJD | 2026-09-01 19:17:33 | 44.24452 | -115.88964 | 17° | 93km/h | 11428m | -7.6m/s | -55.7°C | 44.9% | 0hPa | 0V | 08:07:00 | 00:00:00 | 00:00:00 | |
| KE7DJD | 2026-09-01 19:17:12 | 44.23990 | -115.89169 | 20° | 88km/h | 11586m | -7.4m/s | -55.6°C | 37.1% | 0hPa | 0V | 08:07:00 | 00:00:00 | 00:00:00 | |
| KE7DJD | 2026-09-01 19:16:51 | 44.23564 | -115.89398 | 23° | 84km/h | 11745m | -7.4m/s | -56.4°C | 34.3% | 0hPa | 0V | 08:08:00 | 00:00:00 | 00:00:00 | |
| KE7DJD | 2026-09-01 19:16:30 | 44.23141 | -115.89635 | 27° | 84km/h | 11907m | -7.9m/s | -56.8°C | 27.3% | 0hPa | 0V | 08:08:00 | 00:00:00 | 00:00:00 | |
| KE7DJD | 2026-09-01 19:16:09 | 44.22770 | -115.89903 | 29° | 75km/h | 12072m | -7.8m/s | -56.9°C | 18.2% | 0hPa | 0V | 08:09:00 | 00:00:00 | 00:00:00 | |
| KE7DJD | 2026-09-01 19:15:49 | 44.22446 | -115.90147 | 27° | 69km/h | 12229m | -8.0m/s | -55.6°C | 10.6% | 0hPa | 0V | 08:09:00 | 00:00:00 | 00:00:00 | |
| KE7DJD | 2026-09-01 19:15:28 | 44.22106 | -115.90329 | 16° | 71km/h | 12401m | -8.3m/s | -55.0°C | 7.2% | 0hPa | 0V | 08:09:00 | 00:00:00 | 00:00:00 | |
| KE7DJD | 2026-09-01 19:15:08 | 44.21752 | -115.90470 | 18° | 73km/h | 12570m | -8.4m/s | -55.0°C | 6.2% | 0hPa | 0V | 08:10:00 | 00:00:00 | 00:00:00 | |
| KE7DJD | 2026-09-01 19:14:47 | 44.21345 | -115.90601 | 13° | 82km/h | 12747m | -8.6m/s | -55.9°C | 5.5% | 0hPa | 0V | 08:10:00 | 00:00:00 | 00:00:00 | |
| KE7DJD | 2026-09-01 19:14:05 | 44.20409 | -115.91035 | 28° | 100km/h | 13116m | -8.8m/s | -51.7°C | 2.1% | 0hPa | 0V | 08:11:00 | 00:00:00 | 00:00:00 | |
| KE7DJD | 2026-09-01 19:13:44 | 44.19946 | -115.91412 | 36° | 106km/h | 13305m | -9.1m/s | -52.1°C | 1.9% | 0hPa | 0V | 08:11:00 | 00:00:00 | 00:00:00 | |
| KE7DJD | 2026-09-01 19:13:24 | 44.19515 | -115.91866 | 42° | 99km/h | 13486m | -9.4m/s | -51.8°C | 1.7% | 0hPa | 0V | 08:12:00 | 00:00:00 | 00:00:00 | |
| KE7DJD | 2026-09-01 19:13:03 | 44.19172 | -115.92302 | 44° | 75km/h | 13672m | -9.2m/s | -52.4°C | 1.6% | 0hPa | 0V | 08:12:00 | 00:00:00 | 00:00:00 | |
| KE7DJD | 2026-09-01 19:12:42 | 44.18886 | -115.92616 | 34° | 69km/h | 13867m | -9.3m/s | -53.3°C | 1.6% | 0hPa | 0V | 08:13:00 | 00:00:00 | 00:00:00 | |
| KE7DJD | 2026-09-01 19:12:21 | 44.18544 | -115.92876 | 30° | 75km/h | 14067m | -10.1m/s | -54.1°C | 1.7% | 0hPa | 0V | 08:13:00 | 00:00:00 | 00:00:00 | |
| KE7DJD | 2026-09-01 19:12:01 | 44.18234 | -115.93153 | 31° | 71km/h | 14259m | -9.8m/s | -53.1°C | 1.6% | 0hPa | 0V | 08:13:00 | 00:00:00 | 00:00:00 | |
| KE7DJD | 2026-09-01 19:11:40 | 44.17876 | -115.93415 | 28° | 80km/h | 14465m | -10.1m/s | -53.9°C | 1.8% | 0hPa | 0V | 08:13:00 | 00:00:00 | 00:00:00 | |
| KE7DJD | 2026-09-01 19:11:20 | 44.17532 | -115.93706 | 31° | 82km/h | 14662m | -9.9m/s | -53.6°C | 1.6% | 0hPa | 0V | 08:13:00 | 00:00:00 | 00:00:00 | |
| KE7DJD | 2026-09-01 19:10:58 | 44.17132 | -115.94051 | 35° | 80km/h | 14882m | -10.1m/s | -53.0°C | 1.5% | 0hPa | 0V | 08:14:00 | 00:00:00 | 00:00:00 | |
| KE7DJD | 2026-09-01 19:10:37 | 44.16780 | -115.94382 | 36° | 78km/h | 15094m | -10.0m/s | -53.2°C | 1.6% | 0hPa | 0V | 08:14:00 | 00:00:00 | 00:00:00 | |
| KE7DJD | 2026-09-01 19:10:16 | 44.16455 | -115.94713 | 43° | 75km/h | 15311m | -10.4m/s | -53.4°C | 1.5% | 0hPa | 0V | 08:14:00 | 00:00:00 | 00:00:00 | |
| KE7DJD | 2026-09-01 19:09:55 | 44.16130 | -115.95103 | 45° | 75km/h | 15530m | -10.8m/s | -53.7°C | 1.5% | 0hPa | 0V | 08:15:00 | 00:00:00 | 00:00:00 | |
| KE7DJD | 2026-09-01 19:09:34 | 44.15880 | -115.95446 | 42° | 57km/h | 15756m | -10.6m/s | -54.6°C | 1.6% | 0hPa | 0V | 08:15:00 | 00:00:00 | 00:00:00 | |
| KE7DJD | 2026-09-01 19:09:14 | 44.15665 | -115.95661 | 34° | 53km/h | 15976m | -11.4m/s | -55.1°C | 1.5% | 0hPa | 0V | 08:16:00 | 00:00:00 | 00:00:00 | |
| KE7DJD | 2026-09-01 19:08:53 | 44.15403 | -115.95916 | 36° | 60km/h | 16212m | -11.6m/s | -56.1°C | 1.6% | 0hPa | 0V | 08:16:00 | 00:00:00 | 00:00:00 | |
| KE7DJD | 2026-09-01 19:08:32 | 44.15163 | -115.96204 | 45° | 60km/h | 16454m | -11.5m/s | -56.3°C | 1.6% | 0hPa | 0V | 08:16:00 | 00:00:00 | 00:00:00 | |
| KE7DJD | 2026-09-01 19:08:11 | 44.14905 | -115.96442 | 35° | 58km/h | 16700m | -11.7m/s | -55.4°C | 1.5% | 0hPa | 0V | 08:17:00 | 00:00:00 | 00:00:00 | |
| KE7DJD | 2026-09-01 19:07:50 | 44.14655 | -115.96709 | 41° | 49km/h | 16951m | -12.1m/s | -54.9°C | 1.4% | 0hPa | 0V | 08:17:00 | 00:00:00 | 00:00:00 | |
| KE7DJD | 2026-09-01 19:07:30 | 44.14458 | -115.96877 | 31° | 40km/h | 17192m | -12.5m/s | -54.8°C | 1.3% | 0hPa | 0V | 08:18:00 | 00:00:00 | 00:00:00 | |
| KE7DJD | 2026-09-01 19:07:09 | 44.14275 | -115.97014 | 19° | 42km/h | 17449m | -12.5m/s | -55.3°C | 1.3% | 0hPa | 0V | 08:18:00 | 00:00:00 | 00:00:00 | |
| KE7DJD | 2026-09-01 19:06:49 | 44.14105 | -115.97073 | 9° | 35km/h | 17701m | -13.0m/s | -55.1°C | 1.3% | 0hPa | 0V | 08:18:00 | 00:00:00 | 00:00:00 | |
| KE7DJD | 2026-09-01 19:06:28 | 44.13949 | -115.97141 | 17° | 29km/h | 17974m | -13.8m/s | -56.0°C | 1.3% | 0hPa | 0V | 08:18:00 | 00:00:00 | 00:00:00 | |
| KE7DJD | 2026-09-01 19:06:07 | 44.13733 | -115.97250 | 20° | 44km/h | 18254m | -13.5m/s | -57.1°C | 1.4% | 0hPa | 0V | 08:18:00 | 00:00:00 | 00:00:00 | |
| KE7DJD | 2026-09-01 19:05:46 | 44.13562 | -115.97379 | 29° | 29km/h | 18542m | -14.4m/s | -55.3°C | 1.2% | 0hPa | 0V | 08:19:00 | 00:00:00 | 00:00:00 | |
| KE7DJD | 2026-09-01 19:05:25 | 44.13379 | -115.97430 | 11° | 31km/h | 18841m | -14.2m/s | -54.7°C | 1.2% | 0hPa | 0V | 08:19:00 | 00:00:00 | 00:00:00 | |
| KE7DJD | 2026-09-01 19:05:04 | 44.13244 | -115.97491 | 26° | 22km/h | 19143m | -14.5m/s | -56.4°C | 1.4% | 0hPa | 0V | 08:20:00 | 00:00:00 | 00:00:00 | |
| KE7DJD | 2026-09-01 19:04:44 | 44.13112 | -115.97548 | 45° | 35km/h | 19431m | -14.4m/s | -54.9°C | 1.3% | 0hPa | 0V | 08:20:00 | 00:00:00 | 00:00:00 | |
| KE7DJD | 2026-09-01 19:04:23 | 44.13053 | -115.97727 | 75° | 18km/h | 19746m | -14.7m/s | -53.7°C | 1.1% | 0hPa | 0V | 08:20:00 | 00:00:00 | 00:00:00 | |
| KE7DJD | 2026-09-01 19:04:03 | 44.12996 | -115.97793 | 5° | 20km/h | 20059m | -15.7m/s | -54.4°C | 1.2% | 0hPa | 0V | 08:21:00 | 00:00:00 | 00:00:00 | |
| KE7DJD | 2026-09-01 19:03:42 | 44.12886 | -115.97873 | 61° | 18km/h | 20401m | -16.6m/s | -53.3°C | 1.1% | 0hPa | 0V | 08:21:00 | 00:00:00 | 00:00:00 | |
| KE7DJD | 2026-09-01 19:03:01 | 44.12791 | -115.97986 | 45° | 15km/h | 21111m | -17.8m/s | -53.0°C | 1.1% | 0hPa | 0V | 08:22:00 | 00:00:00 | 00:00:00 | |
| KE7DJD | 2026-09-01 19:02:40 | 44.12754 | -115.98003 | 310° | 13km/h | 21492m | -18.8m/s | -52.4°C | 1.0% | 0hPa | 0V | 08:22:00 | 00:00:00 | 00:00:00 | |
| KE7DJD | 2026-09-01 19:02:19 | 44.12681 | -115.97986 | 4° | 18km/h | 21886m | -19.0m/s | -52.3°C | 1.0% | 0hPa | 0V | 08:23:00 | 00:00:00 | 00:00:00 | |
| KE7DJD | 2026-09-01 19:01:59 | 44.12555 | -115.98032 | 42° | 26km/h | 22273m | -19.7m/s | -54.3°C | 1.1% | 0hPa | 0V | 08:23:00 | 00:00:00 | 00:00:00 | |
| KE7DJD | 2026-09-01 19:01:39 | 44.12536 | -115.98093 | 189° | 9km/h | 22672m | -20.4m/s | -53.0°C | 1.0% | 0hPa | 0V | 08:24:00 | 00:00:00 | 00:00:00 | |
| KE7DJD | 2026-09-01 19:01:18 | 44.12456 | -115.97995 | 349° | 29km/h | 23101m | -20.8m/s | -52.9°C | 1.0% | 0hPa | 0V | 08:24:00 | 00:00:00 | 00:00:00 | |
| KE7DJD | 2026-09-01 19:00:58 | 44.12349 | -115.98080 | 67° | 22km/h | 23521m | -21.5m/s | -52.5°C | 0.9% | 0hPa | 0V | 08:24:00 | 00:00:00 | 00:00:00 | |
| KE7DJD | 2026-09-01 19:00:37 | 44.12299 | -115.98145 | 359° | 20km/h | 23978m | -22.2m/s | -52.3°C | 1.0% | 0hPa | 0V | 08:24:00 | 00:00:00 | 00:00:00 | |
| KE7DJD | 2026-09-01 19:00:16 | 44.12238 | -115.98197 | 57° | 13km/h | 24450m | -22.8m/s | -51.0°C | 0.8% | 0hPa | 0V | 08:24:00 | 00:00:00 | 00:00:00 | |
| KE7DJD | 2026-09-01 18:59:55 | 44.12227 | -115.98247 | 32° | 11km/h | 24941m | -23.9m/s | -51.5°C | 0.9% | 0hPa | 0V | 08:25:00 | 00:00:00 | 00:00:00 | |
| KE7DJD | 2026-09-01 18:59:34 | 44.12184 | -115.98285 | 25° | 22km/h | 25440m | -23.2m/s | -50.5°C | 0.9% | 0hPa | 0V | 08:25:00 | 00:00:00 | 00:00:00 | |
| KE7DJD | 2026-09-01 18:59:14 | 44.12172 | -115.98318 | 27° | 2km/h | 25880m | -19.5m/s | -48.9°C | 0.8% | 0hPa | 0V | 08:25:00 | 00:00:00 | 00:00:00 | |
| KE7DJD | 2026-09-01 18:58:53 | 44.12182 | -115.98312 | 34° | 11km/h | 26374m | -24.9m/s | -48.5°C | 0.7% | 0hPa | 0V | 00:00:00 | 00:00:00 | 00:00:00 | |
| KE7DJD | 2026-09-01 18:58:32 | 44.12186 | -115.98324 | 281° | 7km/h | 26922m | -26.2m/s | -50.3°C | 0.8% | 0hPa | 0V | 00:00:00 | 00:00:00 | 00:00:00 | |
| KE7DJD | 2026-09-01 18:58:04 | 44.12214 | -115.98311 | 188° | 13km/h | 27689m | -28.7m/s | -49.2°C | 0.8% | 0hPa | 0V | 00:00:00 | 00:00:00 | 00:00:00 | |
| KE7DJD | 2026-09-01 18:57:23 | 44.12202 | -115.98185 | 28° | 5km/h | 28950m | -32.4m/s | -47.2°C | 0.7% | 0hPa | 0V | 00:00:00 | 00:00:00 | 00:00:00 | |
| KE7DJD | 2026-09-01 18:56:53 | 44.12195 | -115.98102 | 328° | 27km/h | 29989m | -35.9m/s | -44.8°C | 0.6% | 0hPa | 0V | 00:00:00 | 00:00:00 | 00:00:00 | |
| KE7DJD | 2026-09-01 18:56:06 | 44.12144 | -115.98132 | 103° | 22km/h | 31687m | -34.1m/s | -42.6°C | 0.5% | 0hPa | 0V | 08:29:00 | 00:00:00 | 00:00:00 | |
| KE7DJD | 2026-09-01 18:55:46 | 44.12175 | -115.98145 | 272° | 9km/h | 32309m | -29.5m/s | -42.5°C | 0.6% | 0hPa | 0V | 00:00:00 | 00:00:00 | 00:00:00 | |
| KE7DJD | 2026-09-01 18:55:25 | 44.12208 | -115.98146 | 284° | 26km/h | 32971m | -35.3m/s | -40.2°C | 0.5% | 0hPa | 0V | 00:00:00 | 00:00:00 | 00:00:00 | |
| KE7DJD | 2026-09-01 18:55:04 | 44.12263 | -115.98094 | 235° | 42km/h | 33650m | -32.2m/s | -38.5°C | 0.4% | 0hPa | 0V | 00:00:00 | 00:00:00 | 00:00:00 | |
| KE7DJD | 2026-09-01 18:54:22 | 44.12231 | -115.97990 | 60° | 57km/h | 34904m | 4.0m/s | -36.3°C | 0.3% | 0hPa | 0V | 00:00:00 | 00:00:00 | 00:00:00 | |
| KE7DJD | 2026-09-01 18:54:02 | 44.12109 | -115.97928 | 60° | 31km/h | 34790m | 10.7m/s | -36.0°C | 0.4% | 0hPa | 0V | 00:00:00 | 00:00:00 | 00:00:00 | |
| KE7DJD | 2026-09-01 18:53:41 | 44.12049 | -115.97861 | 87° | 26km/h | 34669m | 7.2m/s | -35.9°C | 0.3% | 0hPa | 0V | 00:00:00 | 00:00:00 | 00:00:00 | |
| KE7DJD | 2026-09-01 18:53:20 | 44.12041 | -115.97767 | 124° | 35km/h | 34554m | 3.1m/s | -36.5°C | 0.3% | 0hPa | 0V | 00:00:00 | 00:00:00 | 00:00:00 | |
| KE7DJD | 2026-09-01 18:53:00 | 44.12040 | -115.97681 | 130° | 37km/h | 34445m | 4.9m/s | -37.8°C | 0.4% | 0hPa | 0V | 00:00:00 | 00:00:00 | 00:00:00 | |
| KE7DJD | 2026-09-01 18:52:39 | 44.12083 | -115.97662 | 144° | 44km/h | 34333m | 1.6m/s | -38.2°C | 0.4% | 0hPa | 0V | 00:00:00 | 00:00:00 | 00:00:00 | |
| KE7DJD | 2026-09-01 18:52:19 | 44.12118 | -115.97664 | 134° | 46km/h | 34226m | 2.8m/s | -39.0°C | 0.4% | 0hPa | 0V | 00:00:00 | 00:00:00 | 00:00:00 | |
| KE7DJD | 2026-09-01 18:51:58 | 44.12121 | -115.97677 | 135° | 18km/h | 34113m | 3.0m/s | -39.2°C | 0.5% | 0hPa | 0V | 00:00:00 | 00:00:00 | 00:00:00 | |
| KE7DJD | 2026-09-01 18:51:37 | 44.12108 | -115.97623 | 284° | 16km/h | 33991m | 8.6m/s | -38.8°C | 0.4% | 0hPa | 0V | 00:00:00 | 00:00:00 | 00:00:00 | |
| KE7DJD | 2026-09-01 18:51:17 | 44.12119 | -115.97501 | 274° | 24km/h | 33869m | 8.1m/s | -38.3°C | 0.4% | 0hPa | 0V | 00:00:00 | 00:00:00 | 00:00:00 | |
| KE7DJD | 2026-09-01 18:50:56 | 44.12190 | -115.97311 | 268° | 44km/h | 33734m | 9.2m/s | -38.4°C | 0.4% | 0hPa | 0V | 00:00:00 | 00:00:00 | 00:00:00 | |
| KE7DJD | 2026-09-01 18:50:35 | 44.12289 | -115.97191 | 287° | 35km/h | 33597m | 4.2m/s | -38.3°C | 0.4% | 0hPa | 0V | 00:00:00 | 00:00:00 | 00:00:00 | |
| KE7DJD | 2026-09-01 18:50:14 | 44.12354 | -115.97135 | 290° | 11km/h | 33464m | 5.0m/s | -38.3°C | 0.4% | 0hPa | 0V | 00:00:00 | 00:00:00 | 00:00:00 | |
| KE7DJD | 2026-09-01 18:49:53 | 44.12419 | -115.97143 | 127° | 31km/h | 33328m | 9.3m/s | -39.6°C | 0.5% | 0hPa | 0V | 00:00:00 | 00:00:00 | 00:00:00 | |
| KE7DJD | 2026-09-01 18:49:33 | 44.12501 | -115.97147 | 133° | 33km/h | 33199m | 8.0m/s | -39.0°C | 0.4% | 0hPa | 0V | 00:00:00 | 00:00:00 | 00:00:00 | |
| KE7DJD | 2026-09-01 18:49:12 | 44.12553 | -115.97154 | 103° | 33km/h | 33074m | 3.8m/s | -39.2°C | 0.4% | 0hPa | 0V | 00:00:00 | 00:00:00 | 00:00:00 | |
| KE7DJD | 2026-09-01 18:48:51 | 44.12564 | -115.97134 | 294° | 15km/h | 32950m | 7.5m/s | -39.5°C | 0.5% | 0hPa | 0V | 00:00:00 | 00:00:00 | 00:00:00 | |
| KE7DJD | 2026-09-01 18:48:30 | 44.12596 | -115.97122 | 295° | 26km/h | 32832m | 2.7m/s | -40.1°C | 0.4% | 0hPa | 0V | 00:00:00 | 00:00:00 | 00:00:00 | |
| KE7DJD | 2026-09-01 18:48:10 | 44.12653 | -115.97206 | 32° | 7km/h | 32721m | 5.1m/s | -40.7°C | 0.5% | 0hPa | 0V | 00:00:00 | 00:00:00 | 00:00:00 | |
| KE7DJD | 2026-09-01 18:47:49 | 44.12686 | -115.97266 | 110° | 37km/h | 32603m | 5.3m/s | -40.8°C | 0.5% | 0hPa | 0V | 00:00:00 | 00:00:00 | 00:00:00 | |
| KE7DJD | 2026-09-01 18:47:28 | 44.12705 | -115.97298 | 121° | 15km/h | 32488m | 5.8m/s | -42.6°C | 0.6% | 0hPa | 0V | 00:00:00 | 00:00:00 | 00:00:00 | |
| KE7DJD | 2026-09-01 18:47:08 | 44.12739 | -115.97280 | 287° | 31km/h | 32372m | 9.6m/s | -43.0°C | 0.6% | 0hPa | 0V | 00:00:00 | 00:00:00 | 00:00:00 | |
| KE7DJD | 2026-09-01 18:46:47 | 44.12794 | -115.97192 | 285° | 29km/h | 32245m | 3.9m/s | -42.1°C | 0.6% | 0hPa | 0V | 00:00:00 | 00:00:00 | 00:00:00 | |
| KE7DJD | 2026-09-01 18:46:27 | 44.12852 | -115.97185 | 191° | 11km/h | 32123m | 6.5m/s | -41.6°C | 0.5% | 0hPa | 0V | 00:00:00 | 00:00:00 | 00:00:00 | |
| KE7DJD | 2026-09-01 18:46:06 | 44.12912 | -115.97263 | 123° | 44km/h | 31987m | 6.0m/s | -41.9°C | 0.5% | 0hPa | 0V | 00:00:00 | 00:00:00 | 00:00:00 | |
| KE7DJD | 2026-09-01 18:45:46 | 44.12980 | -115.97424 | 108° | 42km/h | 31867m | 3.4m/s | -42.1°C | 0.5% | 0hPa | 0V | 00:00:00 | 00:00:00 | 00:00:00 | |
| KE7DJD | 2026-09-01 18:45:26 | 44.13043 | -115.97581 | 122° | 31km/h | 31743m | 6.1m/s | -42.9°C | 0.5% | 0hPa | 0V | 00:00:00 | 00:00:00 | 00:00:00 | |
| KE7DJD | 2026-09-01 18:45:05 | 44.13034 | -115.97721 | 95° | 46km/h | 31615m | 6.8m/s | -43.0°C | 0.5% | 0hPa | 0V | 00:00:00 | 00:00:00 | 00:00:00 | |
| KE7DJD | 2026-09-01 18:44:45 | 44.12944 | -115.97862 | 65° | 18km/h | 31499m | 5.2m/s | -43.7°C | 0.6% | 0hPa | 0V | 00:00:00 | 00:00:00 | 00:00:00 | |
| KE7DJD | 2026-09-01 18:44:24 | 44.12875 | -115.97910 | 288° | 4km/h | 31383m | 3.9m/s | -43.4°C | 0.6% | 0hPa | 0V | 00:00:00 | 00:00:00 | 00:00:00 | |
| KE7DJD | 2026-09-01 18:44:03 | 44.12890 | -115.97930 | 144° | 33km/h | 31264m | 5.5m/s | -43.1°C | 0.6% | 0hPa | 0V | 00:00:00 | 00:00:00 | 00:00:00 | |
| KE7DJD | 2026-09-01 18:43:42 | 44.12965 | -115.97913 | 232° | 31km/h | 31149m | 7.7m/s | -43.3°C | 0.6% | 0hPa | 0V | 00:00:00 | 00:00:00 | 00:00:00 | |
| KE7DJD | 2026-09-01 18:43:22 | 44.13034 | -115.97906 | 256° | 31km/h | 31037m | 4.8m/s | -43.6°C | 0.6% | 0hPa | 0V | 00:00:00 | 00:00:00 | 00:00:00 | |
| KE7DJD | 2026-09-01 18:43:01 | 44.13005 | -115.97903 | 55° | 15km/h | 30915m | 5.5m/s | -43.8°C | 0.6% | 0hPa | 0V | 00:00:00 | 00:00:00 | 00:00:00 | |
| KE7DJD | 2026-09-01 18:42:40 | 44.12985 | -115.97877 | 256° | 18km/h | 30795m | 9.4m/s | -43.4°C | 0.6% | 0hPa | 0V | 00:00:00 | 00:00:00 | 00:00:00 | |
| KE7DJD | 2026-09-01 18:42:19 | 44.13030 | -115.97797 | 258° | 20km/h | 30663m | 6.5m/s | -43.2°C | 0.6% | 0hPa | 0V | 00:00:00 | 00:00:00 | 00:00:00 | |
| KE7DJD | 2026-09-01 18:41:58 | 44.13074 | -115.97801 | 155° | 9km/h | 30526m | 7.1m/s | -43.4°C | 0.6% | 0hPa | 0V | 00:00:00 | 00:00:00 | 00:00:00 | |
| KE7DJD | 2026-09-01 18:41:39 | 44.13107 | -115.97847 | 205° | 27km/h | 30401m | 8.5m/s | -44.3°C | 0.6% | 0hPa | 0V | 00:00:00 | 00:00:00 | 00:00:00 | |
| KE7DJD | 2026-09-01 18:41:18 | 44.13098 | -115.97900 | 54° | 9km/h | 30274m | 6.6m/s | -44.9°C | 0.6% | 0hPa | 0V | 00:00:00 | 00:00:00 | 00:00:00 | |
| KE7DJD | 2026-09-01 18:40:57 | 44.13013 | -115.97895 | 13° | 22km/h | 30143m | 6.1m/s | -44.5°C | 0.6% | 0hPa | 0V | 00:00:00 | 00:00:00 | 00:00:00 | |
| KE7DJD | 2026-09-01 18:40:37 | 44.12901 | -115.97789 | 320° | 33km/h | 30020m | 6.1m/s | -45.1°C | 0.7% | 0hPa | 0V | 00:00:00 | 00:00:00 | 00:00:00 | |
| KE7DJD | 2026-09-01 18:40:16 | 44.12791 | -115.97645 | 328° | 33km/h | 29898m | 4.6m/s | -45.1°C | 0.6% | 0hPa | 0V | 00:00:00 | 00:00:00 | 00:00:00 | |
| KE7DJD | 2026-09-01 18:39:56 | 44.12756 | -115.97454 | 287° | 49km/h | 29780m | 5.5m/s | -45.4°C | 0.7% | 0hPa | 0V | 00:00:00 | 00:00:00 | 00:00:00 | |
| KE7DJD | 2026-09-01 18:39:35 | 44.12788 | -115.97274 | 230° | 2km/h | 29668m | 6.8m/s | -45.7°C | 0.7% | 0hPa | 0V | 00:00:00 | 00:00:00 | 00:00:00 | |
| KE7DJD | 2026-09-01 18:39:15 | 44.12814 | -115.97201 | 249° | 20km/h | 29559m | 3.8m/s | -45.7°C | 0.6% | 0hPa | 0V | 00:00:00 | 00:00:00 | 00:00:00 | |
| KE7DJD | 2026-09-01 18:38:54 | 44.12884 | -115.97227 | 177° | 20km/h | 29448m | 6.3m/s | -46.6°C | 0.7% | 0hPa | 0V | 00:00:00 | 00:00:00 | 00:00:00 | |
| KE7DJD | 2026-09-01 18:38:34 | 44.12979 | -115.97319 | 182° | 27km/h | 29337m | 6.1m/s | -46.5°C | 0.7% | 0hPa | 0V | 00:00:00 | 00:00:00 | 00:00:00 | |
| KE7DJD | 2026-09-01 18:38:13 | 44.13050 | -115.97445 | 213° | 9km/h | 29218m | 6.1m/s | -47.1°C | 0.7% | 0hPa | 0V | 00:00:00 | 00:00:00 | 00:00:00 | |
| KE7DJD | 2026-09-01 18:37:53 | 44.13050 | -115.97536 | 123° | 24km/h | 29099m | 7.0m/s | -47.2°C | 0.7% | 0hPa | 0V | 00:00:00 | 00:00:00 | 00:00:00 | |
| KE7DJD | 2026-09-01 18:37:32 | 44.13061 | -115.97597 | 21° | 9km/h | 28970m | 6.8m/s | -48.0°C | 0.8% | 0hPa | 0V | 00:00:00 | 00:00:00 | 00:00:00 | |
| KE7DJD | 2026-09-01 18:37:12 | 44.13052 | -115.97639 | 276° | 9km/h | 28842m | 6.5m/s | -48.7°C | 0.8% | 0hPa | 0V | 00:00:00 | 00:00:00 | 00:00:00 | |
| KE7DJD | 2026-09-01 18:36:51 | 44.13034 | -115.97621 | 58° | 9km/h | 28709m | 6.5m/s | -47.6°C | 0.8% | 0hPa | 0V | 00:00:00 | 00:00:00 | 00:00:00 | |
| KE7DJD | 2026-09-01 18:36:30 | 44.13022 | -115.97578 | 89° | 4km/h | 28573m | 8.0m/s | -47.3°C | 0.8% | 0hPa | 0V | 00:00:00 | 00:00:00 | 00:00:00 | |
| KE7DJD | 2026-09-01 18:36:11 | 44.13014 | -115.97517 | 337° | 24km/h | 28445m | 4.6m/s | -46.7°C | 0.7% | 0hPa | 0V | 00:00:00 | 00:00:00 | 00:00:00 | |
| KE7DJD | 2026-09-01 18:35:50 | 44.12988 | -115.97469 | 331° | 15km/h | 28319m | 5.2m/s | -46.3°C | 0.7% | 0hPa | 0V | 00:00:00 | 00:00:00 | 00:00:00 | |
| KE7DJD | 2026-09-01 18:35:29 | 44.12935 | -115.97414 | 332° | 15km/h | 28192m | 6.3m/s | -46.6°C | 0.7% | 0hPa | 0V | 00:00:00 | 00:00:00 | 00:00:00 | |
| KE7DJD | 2026-09-01 18:35:08 | 44.12909 | -115.97328 | 349° | 11km/h | 28066m | 5.2m/s | -46.9°C | 0.7% | 0hPa | 0V | 00:00:00 | 00:00:00 | 00:00:00 | |
| KE7DJD | 2026-09-01 18:34:48 | 44.12929 | -115.97218 | 214° | 16km/h | 27952m | 5.4m/s | -47.8°C | 0.8% | 0hPa | 0V | 00:00:00 | 00:00:00 | 00:00:00 | |
| KE7DJD | 2026-09-01 18:34:28 | 44.12968 | -115.97141 | 192° | 20km/h | 27836m | 6.1m/s | -48.1°C | 0.8% | 0hPa | 0V | 00:00:00 | 00:00:00 | 00:00:00 | |
| KE7DJD | 2026-09-01 18:34:07 | 44.13022 | -115.97150 | 198° | 20km/h | 27714m | 6.4m/s | -48.4°C | 0.8% | 0hPa | 0V | 00:00:00 | 00:00:00 | 00:00:00 | |
| KE7DJD | 2026-09-01 18:33:47 | 44.13055 | -115.97173 | 75° | 9km/h | 27603m | 6.7m/s | -48.8°C | 0.8% | 0hPa | 0V | 00:00:00 | 00:00:00 | 00:00:00 | |
| KE7DJD | 2026-09-01 18:33:26 | 44.13074 | -115.97197 | 174° | 16km/h | 27485m | 5.3m/s | -48.0°C | 0.8% | 0hPa | 0V | 00:00:00 | 00:00:00 | 00:00:00 | |
| KE7DJD | 2026-09-01 18:33:06 | 44.13103 | -115.97176 | 128° | 22km/h | 27370m | 5.1m/s | -47.7°C | 0.8% | 0hPa | 0V | 00:00:00 | 00:00:00 | 00:00:00 | |
| KE7DJD | 2026-09-01 18:32:45 | 44.13137 | -115.97198 | 143° | 24km/h | 27250m | 5.2m/s | -48.7°C | 0.8% | 0hPa | 0V | 00:00:00 | 00:00:00 | 00:00:00 | |
| KE7DJD | 2026-09-01 18:32:25 | 44.13140 | -115.97240 | 140° | 11km/h | 27135m | 7.4m/s | -49.8°C | 0.9% | 0hPa | 0V | 00:00:00 | 00:00:00 | 00:00:00 | |
| KE7DJD | 2026-09-01 18:32:04 | 44.13156 | -115.97265 | 282° | 5km/h | 27013m | 6.7m/s | -50.5°C | 0.9% | 0hPa | 0V | 00:00:00 | 00:00:00 | 00:00:00 | |
| KE7DJD | 2026-09-01 18:31:43 | 44.13148 | -115.97262 | 259° | 5km/h | 26889m | 7.1m/s | -50.8°C | 0.9% | 0hPa | 0V | 00:00:00 | 00:00:00 | 00:00:00 | |
| KE7DJD | 2026-09-01 18:31:22 | 44.13142 | -115.97247 | 116° | 7km/h | 26764m | 5.7m/s | -49.7°C | 0.9% | 0hPa | 0V | 00:00:00 | 00:00:00 | 00:00:00 | |
| KE7DJD | 2026-09-01 18:31:01 | 44.13139 | -115.97267 | 132° | 2km/h | 26637m | 6.6m/s | -49.1°C | 0.9% | 0hPa | 0V | 00:00:00 | 00:00:00 | 00:00:00 | |
| KE7DJD | 2026-09-01 18:30:41 | 44.13119 | -115.97272 | 8° | 9km/h | 26515m | 5.6m/s | -49.2°C | 0.9% | 0hPa | 0V | 00:00:00 | 00:00:00 | 00:00:00 | |
| KE7DJD | 2026-09-01 18:30:19 | 44.13093 | -115.97292 | 258° | 11km/h | 26393m | 6.8m/s | -48.8°C | 0.9% | 0hPa | 0V | 00:00:00 | 00:00:00 | 00:00:00 | |
| KE7DJD | 2026-09-01 18:29:58 | 44.13119 | -115.97253 | 274° | 33km/h | 26272m | 5.6m/s | -48.7°C | 0.8% | 0hPa | 0V | 00:00:00 | 00:00:00 | 00:00:00 | |
| KE7DJD | 2026-09-01 18:29:37 | 44.13134 | -115.97185 | 318° | 31km/h | 26160m | 5.2m/s | -49.2°C | 0.9% | 0hPa | 0V | 00:00:00 | 00:00:00 | 00:00:00 | |
| KE7DJD | 2026-09-01 18:29:17 | 44.13123 | -115.97190 | 24° | 11km/h | 26050m | 4.0m/s | -49.4°C | 0.9% | 0hPa | 0V | 00:00:00 | 00:00:00 | 00:00:00 | |
| KE7DJD | 2026-09-01 18:28:57 | 44.13101 | -115.97198 | 91° | 9km/h | 25938m | 3.8m/s | -49.9°C | 0.9% | 0hPa | 0V | 00:00:00 | 00:00:00 | 00:00:00 | |
| KE7DJD | 2026-09-01 18:28:36 | 44.13077 | -115.97162 | 52° | 18km/h | 25819m | 6.0m/s | -49.7°C | 0.9% | 0hPa | 0V | 00:00:00 | 00:00:00 | 00:00:00 | |
| KE7DJD | 2026-09-01 18:28:15 | 44.13061 | -115.97118 | 47° | 5km/h | 25700m | 6.6m/s | -49.6°C | 0.9% | 0hPa | 0V | 00:00:00 | 00:00:00 | 00:00:00 | |
| KE7DJD | 2026-09-01 18:27:55 | 44.13032 | -115.97147 | 22° | 22km/h | 25583m | 5.2m/s | -50.7°C | 1.0% | 0hPa | 0V | 00:00:00 | 00:00:00 | 00:00:00 | |
| KE7DJD | 2026-09-01 18:27:34 | 44.12967 | -115.97139 | 316° | 31km/h | 25461m | 4.9m/s | -50.5°C | 1.0% | 0hPa | 0V | 00:00:00 | 00:00:00 | 00:00:00 | |
| KE7DJD | 2026-09-01 18:27:13 | 44.12896 | -115.97050 | 293° | 18km/h | 25337m | 4.7m/s | -50.4°C | 1.0% | 0hPa | 0V | 00:00:00 | 00:00:00 | 00:00:00 | |
| KE7DJD | 2026-09-01 18:26:53 | 44.12890 | -115.96982 | 223° | 16km/h | 25221m | 6.5m/s | -50.2°C | 0.9% | 0hPa | 0V | 00:00:00 | 00:00:00 | 00:00:00 | |
| KE7DJD | 2026-09-01 18:26:32 | 44.12909 | -115.96938 | 271° | 7km/h | 25100m | 7.1m/s | -50.1°C | 1.0% | 0hPa | 0V | 00:00:00 | 00:00:00 | 00:00:00 | |
| KE7DJD | 2026-09-01 18:26:11 | 44.12900 | -115.96940 | 122° | 5km/h | 24988m | 6.1m/s | -50.6°C | 1.0% | 0hPa | 0V | 00:00:00 | 00:00:00 | 00:00:00 | |
| KE7DJD | 2026-09-01 18:25:51 | 44.12871 | -115.96943 | 289° | 18km/h | 24875m | 5.8m/s | -50.9°C | 1.0% | 0hPa | 0V | 00:00:00 | 00:00:00 | 00:00:00 | |
| KE7DJD | 2026-09-01 18:25:30 | 44.12860 | -115.96918 | 237° | 7km/h | 24761m | 4.2m/s | -50.6°C | 1.0% | 0hPa | 0V | 00:00:00 | 00:00:00 | 00:00:00 | |
| KE7DJD | 2026-09-01 18:25:09 | 44.12849 | -115.96927 | 124° | 13km/h | 24642m | 6.8m/s | -49.9°C | 1.0% | 0hPa | 0V | 00:00:00 | 00:00:00 | 00:00:00 | |
| KE7DJD | 2026-09-01 18:24:48 | 44.12831 | -115.97014 | 96° | 22km/h | 24523m | 4.5m/s | -50.3°C | 1.0% | 0hPa | 0V | 00:00:00 | 00:00:00 | 00:00:00 | |
| KE7DJD | 2026-09-01 18:24:27 | 44.12803 | -115.97084 | 68° | 20km/h | 24407m | 5.3m/s | -50.4°C | 1.0% | 0hPa | 0V | 00:00:00 | 00:00:00 | 00:00:00 | |
| KE7DJD | 2026-09-01 18:24:07 | 44.12749 | -115.97136 | 52° | 18km/h | 24293m | 4.5m/s | -50.7°C | 1.0% | 0hPa | 0V | 00:00:00 | 00:00:00 | 00:00:00 | |
| KE7DJD | 2026-09-01 18:23:47 | 44.12698 | -115.97181 | 70° | 15km/h | 24180m | 5.1m/s | -51.0°C | 1.0% | 0hPa | 0V | 00:00:00 | 00:00:00 | 00:00:00 | |
| KE7DJD | 2026-09-01 18:23:26 | 44.12627 | -115.97218 | 360° | 16km/h | 24063m | 6.2m/s | -51.7°C | 1.0% | 0hPa | 0V | 00:00:00 | 00:00:00 | 00:00:00 | |
| KE7DJD | 2026-09-01 18:23:07 | 44.12525 | -115.97175 | 306° | 18km/h | 23949m | 6.0m/s | -52.1°C | 1.1% | 0hPa | 0V | 00:00:00 | 00:00:00 | 00:00:00 | |
| KE7DJD | 2026-09-01 18:22:46 | 44.12473 | -115.97188 | 13° | 5km/h | 23834m | 6.2m/s | -52.4°C | 1.1% | 0hPa | 0V | 00:00:00 | 00:00:00 | 00:00:00 | |
| KE7DJD | 2026-09-01 18:22:25 | 44.12428 | -115.97259 | 44° | 20km/h | 23717m | 6.0m/s | -52.4°C | 1.1% | 0hPa | 0V | 00:00:00 | 00:00:00 | 00:00:00 | |
| KE7DJD | 2026-09-01 18:22:04 | 44.12359 | -115.97336 | 44° | 33km/h | 23606m | 6.7m/s | -52.2°C | 1.1% | 0hPa | 0V | 00:00:00 | 00:00:00 | 00:00:00 | |
| KE7DJD | 2026-09-01 18:21:43 | 44.12287 | -115.97449 | 70° | 27km/h | 23493m | 5.7m/s | -51.8°C | 1.1% | 0hPa | 0V | 00:00:00 | 00:00:00 | 00:00:00 | |
| KE7DJD | 2026-09-01 18:21:23 | 44.12206 | -115.97568 | 53° | 31km/h | 23381m | 6.3m/s | -51.7°C | 1.0% | 0hPa | 0V | 00:00:00 | 00:00:00 | 00:00:00 | |
| KE7DJD | 2026-09-01 18:21:02 | 44.12096 | -115.97674 | 13° | 24km/h | 23262m | 6.1m/s | -52.3°C | 1.2% | 0hPa | 0V | 00:00:00 | 00:00:00 | 00:00:00 | |
| KE7DJD | 2026-09-01 18:20:41 | 44.11964 | -115.97733 | 360° | 24km/h | 23147m | 6.0m/s | -52.4°C | 1.2% | 0hPa | 0V | 00:00:00 | 00:00:00 | 00:00:00 | |
| KE7DJD | 2026-09-01 18:20:20 | 44.11821 | -115.97740 | 357° | 31km/h | 23036m | 6.2m/s | -51.8°C | 1.1% | 0hPa | 0V | 00:00:00 | 00:00:00 | 00:00:00 | |
| KE7DJD | 2026-09-01 18:19:59 | 44.11723 | -115.97672 | 305° | 15km/h | 22926m | 5.4m/s | -52.1°C | 1.1% | 0hPa | 0V | 00:00:00 | 00:00:00 | 00:00:00 | |
| KE7DJD | 2026-09-01 18:19:39 | 44.11695 | -115.97565 | 233° | 18km/h | 22820m | 5.2m/s | -52.6°C | 1.1% | 0hPa | 0V | 00:00:00 | 00:00:00 | 00:00:00 | |
| KE7DJD | 2026-09-01 18:19:18 | 44.11732 | -115.97495 | 201° | 11km/h | 22711m | 5.8m/s | -53.1°C | 1.1% | 0hPa | 0V | 00:00:00 | 00:00:00 | 00:00:00 | |
| KE7DJD | 2026-09-01 18:18:57 | 44.11785 | -115.97544 | 91° | 9km/h | 22607m | 4.5m/s | -54.0°C | 1.3% | 0hPa | 0V | 00:00:00 | 00:00:00 | 00:00:00 | |
| KE7DJD | 2026-09-01 18:18:36 | 44.11798 | -115.97634 | 151° | 5km/h | 22498m | 4.1m/s | -53.4°C | 1.2% | 0hPa | 0V | 00:00:00 | 00:00:00 | 00:00:00 | |
| KE7DJD | 2026-09-01 18:18:15 | 44.11755 | -115.97715 | 60° | 16km/h | 22386m | 5.6m/s | -53.3°C | 1.2% | 0hPa | 0V | 00:00:00 | 00:00:00 | 00:00:00 | |
| KE7DJD | 2026-09-01 18:17:55 | 44.11661 | -115.97803 | 47° | 27km/h | 22276m | 4.1m/s | -54.0°C | 1.3% | 0hPa | 0V | 00:00:00 | 00:00:00 | 00:00:00 | |
| KE7DJD | 2026-09-01 18:17:34 | 44.11534 | -115.97846 | 16° | 18km/h | 22160m | 6.1m/s | -53.1°C | 1.2% | 0hPa | 0V | 00:00:00 | 00:00:00 | 00:00:00 | |
| KE7DJD | 2026-09-01 18:17:15 | 44.11408 | -115.97858 | 14° | 9km/h | 22046m | 5.3m/s | -52.4°C | 1.2% | 0hPa | 0V | 00:00:00 | 00:00:00 | 00:00:00 | |
| KE7DJD | 2026-09-01 18:16:53 | 44.11321 | -115.97877 | 305° | 18km/h | 21934m | 4.3m/s | -51.7°C | 1.2% | 0hPa | 0V | 00:00:00 | 00:00:00 | 00:00:00 | |
| KE7DJD | 2026-09-01 18:16:32 | 44.11255 | -115.97872 | 333° | 20km/h | 21821m | 6.0m/s | -51.3°C | 1.1% | 0hPa | 0V | 00:00:00 | 00:00:00 | 00:00:00 | |
| KE7DJD | 2026-09-01 18:16:11 | 44.11184 | -115.97861 | 13° | 18km/h | 21705m | 5.5m/s | -52.0°C | 1.2% | 0hPa | 0V | 00:00:00 | 00:00:00 | 00:00:00 | |
| KE7DJD | 2026-09-01 18:15:52 | 44.11138 | -115.97860 | 22° | 9km/h | 21599m | 4.2m/s | -52.0°C | 1.1% | 0hPa | 0V | 00:00:00 | 00:00:00 | 00:00:00 | |
| KE7DJD | 2026-09-01 18:15:31 | 44.11138 | -115.97842 | 166° | 5km/h | 21494m | 5.7m/s | -52.2°C | 1.2% | 0hPa | 0V | 00:00:00 | 00:00:00 | 00:00:00 | |
| KE7DJD | 2026-09-01 18:15:11 | 44.11104 | -115.97836 | 122° | 9km/h | 21381m | 5.8m/s | -51.9°C | 1.2% | 0hPa | 0V | 00:00:00 | 00:00:00 | 00:00:00 | |
| KE7DJD | 2026-09-01 18:14:50 | 44.11073 | -115.97864 | 94° | 18km/h | 21281m | 6.6m/s | -52.6°C | 1.1% | 0hPa | 0V | 00:00:00 | 00:00:00 | 00:00:00 | |
| KE7DJD | 2026-09-01 18:14:29 | 44.11053 | -115.97957 | 70° | 20km/h | 21176m | 5.5m/s | -53.3°C | 1.3% | 0hPa | 0V | 00:00:00 | 00:00:00 | 00:00:00 | |
| KE7DJD | 2026-09-01 18:14:09 | 44.10990 | -115.98052 | 37° | 24km/h | 21072m | 4.3m/s | -53.1°C | 1.2% | 0hPa | 0V | 00:00:00 | 00:00:00 | 00:00:00 | |
| KE7DJD | 2026-09-01 18:13:48 | 44.10910 | -115.98078 | 334° | 13km/h | 20963m | 5.1m/s | -53.7°C | 1.3% | 0hPa | 0V | 00:00:00 | 00:00:00 | 00:00:00 | |
| KE7DJD | 2026-09-01 18:13:27 | 44.10875 | -115.98089 | 18° | 9km/h | 20857m | 5.3m/s | -53.9°C | 1.3% | 0hPa | 0V | 00:00:00 | 00:00:00 | 00:00:00 | |
| KE7DJD | 2026-09-01 18:13:06 | 44.10869 | -115.98144 | 96° | 4km/h | 20751m | 4.2m/s | -53.8°C | 1.3% | 0hPa | 0V | 00:00:00 | 00:00:00 | 00:00:00 | |
| KE7DJD | 2026-09-01 18:12:45 | 44.10870 | -115.98236 | 111° | 29km/h | 20647m | 4.5m/s | -53.9°C | 1.3% | 0hPa | 0V | 00:00:00 | 00:00:00 | 00:00:00 | |
| KE7DJD | 2026-09-01 18:12:24 | 44.10857 | -115.98332 | 92° | 11km/h | 20542m | 6.0m/s | -54.3°C | 1.4% | 0hPa | 0V | 00:00:00 | 00:00:00 | 00:00:00 | |
| KE7DJD | 2026-09-01 18:12:04 | 44.10790 | -115.98392 | 357° | 27km/h | 20438m | 3.7m/s | -54.0°C | 1.3% | 0hPa | 0V | 00:00:00 | 00:00:00 | 00:00:00 | |
| KE7DJD | 2026-09-01 18:11:43 | 44.10654 | -115.98443 | 355° | 37km/h | 20328m | 6.3m/s | -54.9°C | 1.4% | 0hPa | 0V | 00:00:00 | 00:00:00 | 00:00:00 | |
| KE7DJD | 2026-09-01 18:11:23 | 44.10506 | -115.98438 | 352° | 35km/h | 20222m | 5.8m/s | -55.1°C | 1.4% | 0hPa | 0V | 00:00:00 | 00:00:00 | 00:00:00 | |
| KE7DJD | 2026-09-01 18:11:02 | 44.10357 | -115.98393 | 352° | 38km/h | 20113m | 5.4m/s | -54.8°C | 1.4% | 0hPa | 0V | 00:00:00 | 00:00:00 | 00:00:00 | |
| KE7DJD | 2026-09-01 18:10:42 | 44.10247 | -115.98374 | 5° | 24km/h | 20014m | 6.4m/s | -54.2°C | 1.3% | 0hPa | 0V | 00:00:00 | 00:00:00 | 00:00:00 | |
| KE7DJD | 2026-09-01 18:10:21 | 44.10166 | -115.98421 | 28° | 18km/h | 19908m | 4.4m/s | -54.3°C | 1.4% | 0hPa | 0V | 00:00:00 | 00:00:00 | 00:00:00 | |
| KE7DJD | 2026-09-01 18:10:00 | 44.10095 | -115.98495 | 74° | 5km/h | 19801m | 6.7m/s | -53.9°C | 1.3% | 0hPa | 0V | 00:00:00 | 00:00:00 | 00:00:00 | |
| KE7DJD | 2026-09-01 18:09:40 | 44.10031 | -115.98633 | 87° | 22km/h | 19700m | 5.3m/s | -53.4°C | 1.3% | 0hPa | 0V | 00:00:00 | 00:00:00 | 00:00:00 | |
| KE7DJD | 2026-09-01 18:09:20 | 44.09962 | -115.98837 | 75° | 33km/h | 19604m | 4.2m/s | -53.5°C | 1.3% | 0hPa | 0V | 00:00:00 | 00:00:00 | 00:00:00 | |
| KE7DJD | 2026-09-01 18:08:59 | 44.09856 | -115.99039 | 30° | 38km/h | 19502m | 5.1m/s | -53.8°C | 1.3% | 0hPa | 0V | 00:00:00 | 00:00:00 | 00:00:00 | |
| KE7DJD | 2026-09-01 18:08:39 | 44.09688 | -115.99214 | 12° | 44km/h | 19404m | 3.9m/s | -54.8°C | 1.4% | 0hPa | 0V | 00:00:00 | 00:00:00 | 00:00:00 | |
| KE7DJD | 2026-09-01 18:08:19 | 44.09527 | -115.99317 | 18° | 40km/h | 19305m | 5.2m/s | -55.3°C | 1.4% | 0hPa | 0V | 00:00:00 | 00:00:00 | 00:00:00 | |
| KE7DJD | 2026-09-01 18:07:58 | 44.09403 | -115.99343 | 346° | 31km/h | 19201m | 4.0m/s | -54.7°C | 1.3% | 0hPa | 0V | 00:00:00 | 00:00:00 | 00:00:00 | |
| KE7DJD | 2026-09-01 18:07:37 | 44.09299 | -115.99374 | 31° | 22km/h | 19103m | 5.2m/s | -55.4°C | 1.4% | 0hPa | 0V | 00:00:00 | 00:00:00 | 00:00:00 | |
| KE7DJD | 2026-09-01 18:07:16 | 44.09184 | -115.99464 | 3° | 16km/h | 19007m | 3.8m/s | -56.1°C | 1.5% | 0hPa | 0V | 00:00:00 | 00:00:00 | 00:00:00 | |
| KE7DJD | 2026-09-01 18:06:57 | 44.09031 | -115.99521 | 28° | 37km/h | 18916m | 4.3m/s | -56.2°C | 1.5% | 0hPa | 0V | 00:00:00 | 00:00:00 | 00:00:00 | |
| KE7DJD | 2026-09-01 18:06:35 | 44.08860 | -115.99532 | 3° | 33km/h | 18817m | 5.1m/s | -56.5°C | 1.5% | 0hPa | 0V | 00:00:00 | 00:00:00 | 00:00:00 | |
| KE7DJD | 2026-09-01 18:06:14 | 44.08711 | -115.99586 | 29° | 33km/h | 18716m | 4.5m/s | -56.5°C | 1.5% | 0hPa | 0V | 00:00:00 | 00:00:00 | 00:00:00 | |
| KE7DJD | 2026-09-01 18:05:53 | 44.08582 | -115.99639 | 4° | 18km/h | 18613m | 5.4m/s | -55.6°C | 1.5% | 0hPa | 0V | 00:00:00 | 00:00:00 | 00:00:00 | |
| KE7DJD | 2026-09-01 18:05:32 | 44.08487 | -115.99679 | 39° | 27km/h | 18509m | 4.1m/s | -55.5°C | 1.5% | 0hPa | 0V | 00:00:00 | 00:00:00 | 00:00:00 | |
| KE7DJD | 2026-09-01 18:05:12 | 44.08392 | -115.99760 | 54° | 26km/h | 18411m | 5.4m/s | -55.5°C | 1.5% | 0hPa | 0V | 00:00:00 | 00:00:00 | 00:00:00 | |
| KE7DJD | 2026-09-01 18:04:52 | 44.08281 | -115.99911 | 62° | 38km/h | 18311m | 3.3m/s | -55.7°C | 1.5% | 0hPa | 0V | 00:00:00 | 00:00:00 | 00:00:00 | |
| KE7DJD | 2026-09-01 18:04:31 | 44.08110 | -116.00091 | 35° | 53km/h | 18211m | 4.0m/s | -56.0°C | 1.6% | 0hPa | 0V | 00:00:00 | 00:00:00 | 00:00:00 | |
| KE7DJD | 2026-09-01 18:04:11 | 44.07933 | -116.00258 | 40° | 47km/h | 18114m | 4.9m/s | -56.4°C | 1.5% | 0hPa | 0V | 00:00:00 | 00:00:00 | 00:00:00 | |
| KE7DJD | 2026-09-01 18:03:51 | 44.07776 | -116.00427 | 42° | 33km/h | 18019m | 5.0m/s | -56.4°C | 1.6% | 0hPa | 0V | 00:00:00 | 00:00:00 | 00:00:00 | |
| KE7DJD | 2026-09-01 18:03:30 | 44.07624 | -116.00573 | 32° | 44km/h | 17922m | 4.1m/s | -56.1°C | 1.6% | 0hPa | 0V | 00:00:00 | 00:00:00 | 00:00:00 | |
| KE7DJD | 2026-09-01 18:03:10 | 44.07484 | -116.00718 | 42° | 33km/h | 17830m | 5.6m/s | -55.9°C | 1.6% | 0hPa | 0V | 00:00:00 | 00:00:00 | 00:00:00 | |
| KE7DJD | 2026-09-01 18:02:49 | 44.07384 | -116.00896 | 53° | 40km/h | 17730m | 3.5m/s | -55.6°C | 1.5% | 0hPa | 0V | 00:00:00 | 00:00:00 | 00:00:00 | |
| KE7DJD | 2026-09-01 18:02:29 | 44.07271 | -116.01035 | 44° | 31km/h | 17634m | 4.8m/s | -55.9°C | 1.7% | 0hPa | 0V | 00:00:00 | 00:00:00 | 00:00:00 | |
| KE7DJD | 2026-09-01 18:02:08 | 44.07107 | -116.01167 | 31° | 47km/h | 17539m | 5.9m/s | -56.4°C | 1.6% | 0hPa | 0V | 00:00:00 | 00:00:00 | 00:00:00 | |
| KE7DJD | 2026-09-01 18:01:48 | 44.06888 | -116.01277 | 20° | 47km/h | 17447m | 5.1m/s | -56.1°C | 1.6% | 0hPa | 0V | 00:00:00 | 00:00:00 | 00:00:00 | |
| KE7DJD | 2026-09-01 18:01:28 | 44.06655 | -116.01413 | 19° | 53km/h | 17352m | 4.0m/s | -56.4°C | 1.7% | 0hPa | 0V | 00:00:00 | 00:00:00 | 00:00:00 | |
| KE7DJD | 2026-09-01 18:01:06 | 44.06421 | -116.01494 | 18° | 47km/h | 17257m | 5.3m/s | -55.9°C | 1.6% | 0hPa | 0V | 00:00:00 | 00:00:00 | 00:00:00 | |
| KE7DJD | 2026-09-01 18:00:46 | 44.06211 | -116.01559 | 356° | 44km/h | 17169m | 3.6m/s | -55.6°C | 1.7% | 0hPa | 0V | 00:00:00 | 00:00:00 | 00:00:00 | |
| KE7DJD | 2026-09-01 18:00:26 | 44.06021 | -116.01591 | 5° | 42km/h | 17080m | 5.2m/s | -55.0°C | 1.7% | 0hPa | 0V | 00:00:00 | 00:00:00 | 00:00:00 | |
| KE7DJD | 2026-09-01 18:00:05 | 44.05814 | -116.01627 | 12° | 64km/h | 16970m | 5.8m/s | -54.4°C | 1.6% | 0hPa | 0V | 00:00:00 | 00:00:00 | 00:00:00 | |
| KE7DJD | 2026-09-01 17:59:45 | 44.05605 | -116.01723 | 31° | 53km/h | 16866m | 5.6m/s | -54.0°C | 1.6% | 0hPa | 0V | 00:00:00 | 00:00:00 | 00:00:00 | |
| KE7DJD | 2026-09-01 17:59:24 | 44.05387 | -116.01915 | 39° | 51km/h | 16767m | 6.2m/s | -53.9°C | 1.6% | 0hPa | 0V | 00:00:00 | 00:00:00 | 00:00:00 | |
| KE7DJD | 2026-09-01 17:59:03 | 44.05188 | -116.02142 | 40° | 58km/h | 16667m | 5.3m/s | -53.4°C | 1.6% | 0hPa | 0V | 00:00:00 | 00:00:00 | 00:00:00 | |
| KE7DJD | 2026-09-01 17:58:43 | 44.04951 | -116.02425 | 47° | 62km/h | 16578m | 3.6m/s | -54.1°C | 1.6% | 0hPa | 0V | 00:00:00 | 00:00:00 | 00:00:00 | |
| KE7DJD | 2026-09-01 17:58:22 | 44.04645 | -116.02675 | 29° | 58km/h | 16484m | 5.8m/s | -55.1°C | 1.8% | 0hPa | 0V | 00:00:00 | 00:00:00 | 00:00:00 | |
| KE7DJD | 2026-09-01 17:58:01 | 44.04340 | -116.02929 | 38° | 73km/h | 16388m | 5.7m/s | -55.7°C | 1.9% | 0hPa | 0V | 00:00:00 | 00:00:00 | 00:00:00 | |
| KE7DJD | 2026-09-01 17:57:40 | 44.04068 | -116.03277 | 45° | 68km/h | 16290m | 3.8m/s | -55.6°C | 1.8% | 0hPa | 0V | 00:00:00 | 00:00:00 | 00:00:00 | |
| KE7DJD | 2026-09-01 17:57:19 | 44.03784 | -116.03603 | 41° | 80km/h | 16195m | 3.9m/s | -55.6°C | 1.9% | 0hPa | 0V | 00:00:00 | 00:00:00 | 00:00:00 | |
| KE7DJD | 2026-09-01 17:56:59 | 44.03484 | -116.03897 | 39° | 73km/h | 16100m | 5.2m/s | -55.4°C | 1.9% | 0hPa | 0V | 00:00:00 | 00:00:00 | 00:00:00 | |
| KE7DJD | 2026-09-01 17:56:39 | 44.03209 | -116.04210 | 35° | 69km/h | 16004m | 4.1m/s | -55.1°C | 1.8% | 0hPa | 0V | 00:00:00 | 00:00:00 | 00:00:00 | |
| KE7DJD | 2026-09-01 17:56:17 | 44.02911 | -116.04514 | 33° | 69km/h | 15904m | 5.4m/s | -55.2°C | 1.9% | 0hPa | 0V | 00:00:00 | 00:00:00 | 00:00:00 | |
| KE7DJD | 2026-09-01 17:55:56 | 44.02632 | -116.04827 | 48° | 68km/h | 15801m | 4.8m/s | -54.7°C | 1.9% | 0hPa | 0V | 00:00:00 | 00:00:00 | 00:00:00 | |
| KE7DJD | 2026-09-01 17:55:35 | 44.02370 | -116.05178 | 40° | 78km/h | 15700m | 4.0m/s | -54.9°C | 1.9% | 0hPa | 0V | 00:00:00 | 00:00:00 | 00:00:00 | |
| KE7DJD | 2026-09-01 17:55:15 | 44.02093 | -116.05562 | 50° | 80km/h | 15607m | 5.3m/s | -54.8°C | 2.0% | 0hPa | 0V | 00:00:00 | 00:00:00 | 00:00:00 | |
| KE7DJD | 2026-09-01 17:54:55 | 44.01799 | -116.05979 | 49° | 80km/h | 15503m | 5.0m/s | -54.5°C | 2.0% | 0hPa | 0V | 00:00:00 | 00:00:00 | 00:00:00 | |
| KE7DJD | 2026-09-01 17:54:14 | 44.01174 | -116.06733 | 34° | 84km/h | 15306m | 4.6m/s | -54.0°C | 1.9% | 0hPa | 0V | 00:00:00 | 00:00:00 | 00:00:00 | |
| KE7DJD | 2026-09-01 17:53:53 | 44.00850 | -116.07082 | 35° | 88km/h | 15207m | 5.6m/s | -54.3°C | 2.0% | 0hPa | 0V | 00:00:00 | 00:00:00 | 00:00:00 | |
| KE7DJD | 2026-09-01 17:53:33 | 44.00521 | -116.07369 | 27° | 69km/h | 15113m | 5.0m/s | -54.5°C | 2.0% | 0hPa | 0V | 00:00:00 | 00:00:00 | 00:00:00 | |
| KE7DJD | 2026-09-01 17:53:12 | 44.00199 | -116.07632 | 27° | 68km/h | 15018m | 3.2m/s | -54.1°C | 2.0% | 0hPa | 0V | 00:00:00 | 00:00:00 | 00:00:00 | |
| KE7DJD | 2026-09-01 17:52:52 | 43.99887 | -116.07914 | 35° | 75km/h | 14931m | 4.0m/s | -54.1°C | 2.1% | 0hPa | 0V | 00:00:00 | 00:00:00 | 00:00:00 | |
| KE7DJD | 2026-09-01 17:52:31 | 43.99562 | -116.08214 | 37° | 82km/h | 14839m | 4.2m/s | -53.6°C | 2.0% | 0hPa | 0V | 00:00:00 | 00:00:00 | 00:00:00 | |
| KE7DJD | 2026-09-01 17:52:11 | 43.99223 | -116.08539 | 33° | 84km/h | 14750m | 5.1m/s | -54.0°C | 2.0% | 0hPa | 0V | 00:00:00 | 00:00:00 | 00:00:00 | |
| KE7DJD | 2026-09-01 17:51:50 | 43.98883 | -116.08859 | 34° | 73km/h | 14658m | 5.9m/s | -53.3°C | 2.1% | 0hPa | 0V | 00:00:00 | 00:00:00 | 00:00:00 | |
| KE7DJD | 2026-09-01 17:51:29 | 43.98582 | -116.09151 | 36° | 64km/h | 14568m | 5.1m/s | -52.8°C | 1.9% | 0hPa | 0V | 00:00:00 | 00:00:00 | 00:00:00 | |
| KE7DJD | 2026-09-01 17:51:08 | 43.98321 | -116.09411 | 42° | 44km/h | 14476m | 4.3m/s | -52.5°C | 1.9% | 0hPa | 0V | 00:00:00 | 00:00:00 | 00:00:00 | |
| KE7DJD | 2026-09-01 17:50:47 | 43.98064 | -116.09693 | 38° | 60km/h | 14373m | 3.5m/s | -52.4°C | 1.9% | 0hPa | 0V | 00:00:00 | 00:00:00 | 00:00:00 | |
| KE7DJD | 2026-09-01 17:50:26 | 43.97717 | -116.10030 | 34° | 80km/h | 14291m | 4.7m/s | -52.6°C | 2.0% | 0hPa | 0V | 00:00:00 | 00:00:00 | 00:00:00 | |
| KE7DJD | 2026-09-01 17:50:05 | 43.97351 | -116.10342 | 33° | 89km/h | 14213m | 3.3m/s | -52.7°C | 2.2% | 0hPa | 0V | 00:00:00 | 00:00:00 | 00:00:00 | |
| KE7DJD | 2026-09-01 17:49:44 | 43.96968 | -116.10657 | 37° | 82km/h | 14130m | 4.1m/s | -52.6°C | 2.2% | 0hPa | 0V | 00:00:00 | 00:00:00 | 00:00:00 | |
| KE7DJD | 2026-09-01 17:49:23 | 43.96613 | -116.10964 | 38° | 71km/h | 14049m | 4.6m/s | -52.9°C | 2.1% | 0hPa | 0V | 00:00:00 | 00:00:00 | 00:00:00 | |
| KE7DJD | 2026-09-01 17:49:03 | 43.96286 | -116.11275 | 39° | 86km/h | 13967m | 4.2m/s | -52.8°C | 2.2% | 0hPa | 0V | 00:00:00 | 00:00:00 | 00:00:00 | |
| KE7DJD | 2026-09-01 17:48:43 | 43.95935 | -116.11602 | 36° | 89km/h | 13885m | 4.1m/s | -53.3°C | 2.2% | 0hPa | 0V | 00:00:00 | 00:00:00 | 00:00:00 | |
| KE7DJD | 2026-09-01 17:48:22 | 43.95573 | -116.11947 | 37° | 93km/h | 13795m | 4.0m/s | -54.0°C | 2.4% | 0hPa | 0V | 00:00:00 | 00:00:00 | 00:00:00 | |
| KE7DJD | 2026-09-01 17:48:01 | 43.95205 | -116.12330 | 37° | 95km/h | 13700m | 3.3m/s | -53.7°C | 2.5% | 0hPa | 0V | 00:00:00 | 00:00:00 | 00:00:00 | |
| KE7DJD | 2026-09-01 17:47:40 | 43.94823 | -116.12735 | 42° | 93km/h | 13600m | 4.7m/s | -53.7°C | 2.6% | 0hPa | 0V | 00:00:00 | 00:00:00 | 00:00:00 | |
| KE7DJD | 2026-09-01 17:47:19 | 43.94414 | -116.13174 | 38° | 99km/h | 13498m | 5.4m/s | -53.4°C | 2.5% | 0hPa | 0V | 00:00:00 | 00:00:00 | 00:00:00 | |
| KE7DJD | 2026-09-01 17:46:58 | 43.94009 | -116.13578 | 39° | 93km/h | 13398m | 4.1m/s | -53.2°C | 2.7% | 0hPa | 0V | 00:00:00 | 00:00:00 | 00:00:00 | |
| KE7DJD | 2026-09-01 17:46:38 | 43.93630 | -116.13923 | 29° | 88km/h | 13303m | 4.8m/s | -52.8°C | 2.8% | 0hPa | 0V | 00:00:00 | 00:00:00 | 00:00:00 | |
| KE7DJD | 2026-09-01 17:46:17 | 43.93228 | -116.14235 | 26° | 89km/h | 13201m | 3.7m/s | -52.2°C | 2.9% | 0hPa | 0V | 00:00:00 | 00:00:00 | 00:00:00 | |
| KE7DJD | 2026-09-01 17:45:56 | 43.92817 | -116.14519 | 24° | 86km/h | 13107m | 4.3m/s | -53.1°C | 3.6% | 0hPa | 0V | 00:00:00 | 00:00:00 | 00:00:00 | |
| KE7DJD | 2026-09-01 17:45:35 | 43.92395 | -116.14790 | 24° | 84km/h | 13014m | 5.9m/s | -54.3°C | 5.1% | 0hPa | 0V | 00:00:00 | 00:00:00 | 00:00:00 | |
| KE7DJD | 2026-09-01 17:45:16 | 43.91993 | -116.14971 | 11° | 78km/h | 12921m | 5.0m/s | -54.0°C | 5.7% | 0hPa | 0V | 00:00:00 | 00:00:00 | 00:00:00 | |
| KE7DJD | 2026-09-01 17:44:54 | 43.91579 | -116.15079 | 9° | 84km/h | 12836m | 4.2m/s | -55.3°C | 7.8% | 0hPa | 0V | 00:00:00 | 00:00:00 | 00:00:00 | |
| KE7DJD | 2026-09-01 17:44:34 | 43.91235 | -116.15154 | 6° | 66km/h | 12752m | 4.4m/s | -55.5°C | 8.2% | 0hPa | 0V | 00:00:00 | 00:00:00 | 00:00:00 | |
| KE7DJD | 2026-09-01 17:44:14 | 43.90938 | -116.15209 | 13° | 60km/h | 12666m | 5.4m/s | -55.1°C | 7.8% | 0hPa | 0V | 00:00:00 | 00:00:00 | 00:00:00 | |
| KE7DJD | 2026-09-01 17:43:53 | 43.90645 | -116.15302 | 14° | 57km/h | 12578m | 4.0m/s | -54.8°C | 8.1% | 0hPa | 0V | 00:00:00 | 00:00:00 | 00:00:00 | |
| KE7DJD | 2026-09-01 17:43:32 | 43.90348 | -116.15440 | 20° | 58km/h | 12490m | 3.7m/s | -54.5°C | 8.4% | 0hPa | 0V | 00:00:00 | 00:00:00 | 00:00:00 | |
| KE7DJD | 2026-09-01 17:43:11 | 43.90041 | -116.15610 | 31° | 64km/h | 12401m | 4.3m/s | -54.8°C | 9.8% | 0hPa | 0V | 00:00:00 | 00:00:00 | 00:00:00 | |
| KE7DJD | 2026-09-01 17:42:50 | 43.89738 | -116.15851 | 34° | 69km/h | 12315m | 5.3m/s | -54.8°C | 11.8% | 0hPa | 0V | 00:00:00 | 00:00:00 | 00:00:00 | |
| KE7DJD | 2026-09-01 17:42:30 | 43.89414 | -116.16124 | 31° | 82km/h | 12235m | 3.3m/s | -54.8°C | 13.9% | 0hPa | 0V | 00:00:00 | 00:00:00 | 00:00:00 | |
| KE7DJD | 2026-09-01 17:42:09 | 43.89054 | -116.16441 | 35° | 88km/h | 12148m | 4.6m/s | -55.3°C | 17.1% | 0hPa | 0V | 00:00:00 | 00:00:00 | 00:00:00 | |
| KE7DJD | 2026-09-01 17:41:48 | 43.88667 | -116.16788 | 33° | 86km/h | 12059m | 4.0m/s | -55.0°C | 20.1% | 0hPa | 0V | 00:00:00 | 00:00:00 | 00:00:00 | |
| KE7DJD | 2026-09-01 17:41:28 | 43.88237 | -116.17122 | 25° | 102km/h | 11969m | 3.2m/s | -55.7°C | 25.8% | 0hPa | 0V | 00:00:00 | 00:00:00 | 00:00:00 | |
| KE7DJD | 2026-09-01 17:41:06 | 43.87799 | -116.17412 | 26° | 82km/h | 11882m | 4.1m/s | -55.7°C | 30.2% | 0hPa | 0V | 00:00:00 | 00:00:00 | 00:00:00 | |
| KE7DJD | 2026-09-01 17:40:46 | 43.87437 | -116.17634 | 25° | 80km/h | 11802m | 5.0m/s | -55.8°C | 33.8% | 0hPa | 0V | 00:00:00 | 00:00:00 | 00:00:00 | |
| KE7DJD | 2026-09-01 17:40:26 | 43.87052 | -116.17858 | 28° | 82km/h | 11721m | 3.5m/s | -56.0°C | 38.3% | 0hPa | 0V | 00:00:00 | 00:00:00 | 00:00:00 | |
| KE7DJD | 2026-09-01 17:40:05 | 43.86637 | -116.18071 | 24° | 84km/h | 11638m | 3.3m/s | -56.4°C | 46.4% | 0hPa | 0V | 00:00:00 | 00:00:00 | 00:00:00 | |
| KE7DJD | 2026-09-01 17:39:44 | 43.86180 | -116.18320 | 20° | 95km/h | 11557m | 5.7m/s | -56.2°C | 54.3% | 0hPa | 0V | 00:00:00 | 00:00:00 | 00:00:00 | |
| KE7DJD | 2026-09-01 17:39:23 | 43.85745 | -116.18511 | 15° | 80km/h | 11468m | 3.5m/s | -56.9°C | 53.9% | 0hPa | 0V | 00:00:00 | 00:00:00 | 00:00:00 | |
| KE7DJD | 2026-09-01 17:39:02 | 43.85292 | -116.18670 | 17° | 84km/h | 11385m | 5.2m/s | -56.2°C | 56.0% | 0hPa | 0V | 00:00:00 | 00:00:00 | 00:00:00 | |
| KE7DJD | 2026-09-01 17:38:42 | 43.84847 | -116.18818 | 11° | 91km/h | 11299m | 4.4m/s | -55.5°C | 62.4% | 0hPa | 0V | 00:00:00 | 00:00:00 | 00:00:00 | |
| KE7DJD | 2026-09-01 17:38:21 | 43.84362 | -116.18964 | 14° | 95km/h | 11204m | 6.8m/s | -54.9°C | 75.9% | 0hPa | 0V | 00:00:00 | 00:00:00 | 00:00:00 | |
| KE7DJD | 2026-09-01 17:38:01 | 43.83887 | -116.19095 | 8° | 86km/h | 11104m | 4.5m/s | -54.0°C | 73.3% | 0hPa | 0V | 00:00:00 | 00:00:00 | 00:00:00 | |
| KE7DJD | 2026-09-01 17:37:40 | 43.83438 | -116.19225 | 14° | 89km/h | 11008m | 5.4m/s | -53.0°C | 72.2% | 0hPa | 0V | 00:00:00 | 00:00:00 | 00:00:00 | |
| KE7DJD | 2026-09-01 17:37:19 | 43.82979 | -116.19369 | 11° | 86km/h | 10908m | 5.4m/s | -52.3°C | 64.3% | 0hPa | 0V | 00:00:00 | 00:00:00 | 00:00:00 | |
| KE7DJD | 2026-09-01 17:36:59 | 43.82568 | -116.19492 | 18° | 80km/h | 10819m | 4.3m/s | -51.4°C | 63.6% | 0hPa | 0V | 00:00:00 | 00:00:00 | 00:00:00 | |
| KE7DJD | 2026-09-01 17:36:39 | 43.82164 | -116.19630 | 16° | 82km/h | 10731m | 3.8m/s | -50.5°C | 63.6% | 0hPa | 0V | 00:00:00 | 00:00:00 | 00:00:00 | |
| KE7DJD | 2026-09-01 17:36:18 | 43.81745 | -116.19796 | 20° | 80km/h | 10637m | 3.9m/s | -49.7°C | 66.6% | 0hPa | 0V | 00:00:00 | 00:00:00 | 00:00:00 | |
| KE7DJD | 2026-09-01 17:35:58 | 43.81330 | -116.19962 | 14° | 80km/h | 10537m | 4.9m/s | -48.9°C | 68.0% | 0hPa | 0V | 00:00:00 | 00:00:00 | 00:00:00 | |
| KE7DJD | 2026-09-01 17:35:36 | 43.80938 | -116.20135 | 21° | 78km/h | 10440m | 4.8m/s | -47.9°C | 68.2% | 0hPa | 0V | 00:00:00 | 00:00:00 | 00:00:00 | |
| KE7DJD | 2026-09-01 17:35:16 | 43.80562 | -116.20306 | 18° | 77km/h | 10349m | 5.6m/s | -47.1°C | 66.7% | 0hPa | 0V | 00:00:00 | 00:00:00 | 00:00:00 | |
| KE7DJD | 2026-09-01 17:34:35 | 43.79845 | -116.20653 | 19° | 66km/h | 10161m | 3.5m/s | -45.6°C | 66.3% | 0hPa | 0V | 00:00:00 | 00:00:00 | 00:00:00 | |
| KE7DJD | 2026-09-01 17:34:15 | 43.79527 | -116.20830 | 25° | 78km/h | 10064m | 4.0m/s | -44.6°C | 61.7% | 0hPa | 0V | 00:00:00 | 00:00:00 | 00:00:00 | |
| KE7DJD | 2026-09-01 17:33:55 | 43.79207 | -116.21007 | 26° | 64km/h | 9965m | 4.6m/s | -43.7°C | 63.0% | 0hPa | 0V | 00:00:00 | 00:00:00 | 00:00:00 | |
| KE7DJD | 2026-09-01 17:33:34 | 43.78906 | -116.21184 | 27° | 69km/h | 9873m | 5.5m/s | -43.0°C | 61.6% | 0hPa | 0V | 00:00:00 | 00:00:00 | 00:00:00 | |
| KE7DJD | 2026-09-01 17:33:13 | 43.78606 | -116.21393 | 25° | 64km/h | 9780m | 5.3m/s | -42.4°C | 64.9% | 0hPa | 0V | 00:00:00 | 00:00:00 | 00:00:00 | |
| KE7DJD | 2026-09-01 17:32:53 | 43.78320 | -116.21575 | 31° | 62km/h | 9691m | 4.1m/s | -41.6°C | 67.6% | 0hPa | 0V | 00:00:00 | 00:00:00 | 00:00:00 | |
| KE7DJD | 2026-09-01 17:32:32 | 43.78014 | -116.21769 | 26° | 58km/h | 9599m | 4.1m/s | -40.9°C | 69.5% | 0hPa | 0V | 00:00:00 | 00:00:00 | 00:00:00 | |
| KE7DJD | 2026-09-01 17:32:12 | 43.77723 | -116.21946 | 26° | 62km/h | 9511m | 4.1m/s | -40.1°C | 72.2% | 0hPa | 0V | 00:00:00 | 00:00:00 | 00:00:00 | |
| KE7DJD | 2026-09-01 17:31:52 | 43.77435 | -116.22119 | 28° | 62km/h | 9422m | 3.6m/s | -39.3°C | 72.9% | 0hPa | 0V | 00:00:00 | 00:00:00 | 00:00:00 | |
| KE7DJD | 2026-09-01 17:31:31 | 43.77140 | -116.22298 | 22° | 60km/h | 9328m | 3.8m/s | -38.5°C | 71.0% | 0hPa | 0V | 00:00:00 | 00:00:00 | 00:00:00 | |
| KE7DJD | 2026-09-01 17:31:10 | 43.76852 | -116.22461 | 24° | 62km/h | 9237m | 5.3m/s | -37.7°C | 71.7% | 0hPa | 0V | 00:00:00 | 00:00:00 | 00:00:00 | |
| KE7DJD | 2026-09-01 17:30:49 | 43.76556 | -116.22624 | 24° | 64km/h | 9146m | 3.5m/s | -37.0°C | 71.9% | 0hPa | 0V | 00:00:00 | 00:00:00 | 00:00:00 | |
| KE7DJD | 2026-09-01 17:30:29 | 43.76275 | -116.22776 | 26° | 53km/h | 9059m | 3.6m/s | -36.2°C | 71.9% | 0hPa | 0V | 00:00:00 | 00:00:00 | 00:00:00 | |
| KE7DJD | 2026-09-01 17:30:09 | 43.75999 | -116.22923 | 28° | 49km/h | 8971m | 3.9m/s | -35.5°C | 71.8% | 0hPa | 0V | 00:00:00 | 00:00:00 | 00:00:00 | |
| KE7DJD | 2026-09-01 17:29:28 | 43.75442 | -116.23223 | 27° | 53km/h | 8785m | 4.5m/s | -34.0°C | 72.7% | 0hPa | 0V | 00:00:00 | 00:00:00 | 00:00:00 | |
| KE7DJD | 2026-09-01 17:29:07 | 43.75171 | -116.23354 | 20° | 49km/h | 8694m | 3.4m/s | -33.5°C | 76.0% | 0hPa | 0V | 00:00:00 | 00:00:00 | 00:00:00 | |
| KE7DJD | 2026-09-01 17:28:47 | 43.74911 | -116.23472 | 25° | 49km/h | 8608m | 5.0m/s | -32.8°C | 76.8% | 0hPa | 0V | 00:00:00 | 00:00:00 | 00:00:00 | |
| KE7DJD | 2026-09-01 17:28:26 | 43.74656 | -116.23588 | 21° | 49km/h | 8520m | 4.2m/s | -32.0°C | 75.0% | 0hPa | 0V | 00:00:00 | 00:00:00 | 00:00:00 | |
| KE7DJD | 2026-09-01 17:27:45 | 43.74153 | -116.23799 | 19° | 51km/h | 8351m | 4.1m/s | -30.7°C | 72.5% | 0hPa | 0V | 00:00:00 | 00:00:00 | 00:00:00 | |
| KE7DJD | 2026-09-01 17:27:24 | 43.73869 | -116.23889 | 21° | 68km/h | 8254m | 7.5m/s | -30.2°C | 77.0% | 0hPa | 0V | 00:00:00 | 00:00:00 | 00:00:00 | |
| KE7DJD | 2026-09-01 17:27:04 | 43.73561 | -116.24006 | 30° | 57km/h | 8157m | 4.1m/s | -29.4°C | 74.8% | 0hPa | 0V | 00:00:00 | 00:00:00 | 00:00:00 | |
| KE7DJD | 2026-09-01 17:26:43 | 43.73271 | -116.24117 | 12° | 58km/h | 8067m | 4.6m/s | -28.8°C | 73.0% | 0hPa | 0V | 00:00:00 | 00:00:00 | 00:00:00 | |
| KE7DJD | 2026-09-01 17:26:23 | 43.72975 | -116.24195 | 21° | 66km/h | 7989m | 4.4m/s | -29.1°C | 59.1% | 0hPa | 0V | 00:00:00 | 00:00:00 | 00:00:00 | |
| KE7DJD | 2026-09-01 17:26:02 | 43.72642 | -116.24318 | 13° | 69km/h | 7896m | 4.8m/s | -28.2°C | 52.7% | 0hPa | 0V | 00:00:00 | 00:00:00 | 00:00:00 | |
| KE7DJD | 2026-09-01 17:25:41 | 43.72317 | -116.24419 | 13° | 71km/h | 7807m | 4.0m/s | -27.5°C | 56.2% | 0hPa | 0V | 00:00:00 | 00:00:00 | 00:00:00 | |
| KE7DJD | 2026-09-01 17:25:21 | 43.71998 | -116.24490 | 15° | 66km/h | 7735m | 4.2m/s | -26.9°C | 62.4% | 0hPa | 0V | 00:00:00 | 00:00:00 | 00:00:00 | |
| KE7DJD | 2026-09-01 17:25:00 | 43.71653 | -116.24577 | 18° | 57km/h | 7654m | 3.7m/s | -26.2°C | 72.8% | 0hPa | 0V | 00:00:00 | 00:00:00 | 00:00:00 | |
| KE7DJD | 2026-09-01 17:24:39 | 43.71312 | -116.24629 | 2° | 53km/h | 7550m | 5.7m/s | -25.3°C | 58.1% | 0hPa | 0V | 00:00:00 | 00:00:00 | 00:00:00 | |
| KE7DJD | 2026-09-01 17:24:18 | 43.71007 | -116.24678 | 4° | 58km/h | 7466m | 3.4m/s | -24.5°C | 54.7% | 0hPa | 0V | 00:00:00 | 00:00:00 | 00:00:00 | |
| KE7DJD | 2026-09-01 17:23:57 | 43.70699 | -116.24731 | 8° | 55km/h | 7381m | 4.6m/s | -23.7°C | 50.2% | 0hPa | 0V | 00:00:00 | 00:00:00 | 00:00:00 | |
| KE7DJD | 2026-09-01 17:23:36 | 43.70396 | -116.24768 | 8° | 62km/h | 7292m | 5.0m/s | -23.0°C | 56.0% | 0hPa | 0V | 00:00:00 | 00:00:00 | 00:00:00 | |
| KE7DJD | 2026-09-01 17:23:16 | 43.70103 | -116.24808 | 15° | 58km/h | 7211m | 4.5m/s | -22.3°C | 56.1% | 0hPa | 0V | 00:00:00 | 00:00:00 | 00:00:00 | |
| KE7DJD | 2026-09-01 17:22:55 | 43.69795 | -116.24870 | 356° | 66km/h | 7104m | 4.6m/s | -21.4°C | 64.1% | 0hPa | 0V | 00:00:00 | 00:00:00 | 00:00:00 | |
| KE7DJD | 2026-09-01 17:22:34 | 43.69451 | -116.24933 | 7° | 68km/h | 6987m | 4.8m/s | -20.5°C | 64.3% | 0hPa | 0V | 00:00:00 | 00:00:00 | 00:00:00 | |
| KE7DJD | 2026-09-01 17:22:14 | 43.69119 | -116.24979 | 9° | 71km/h | 6901m | 4.6m/s | -20.4°C | 93.8% | 0hPa | 0V | 00:00:00 | 00:00:00 | 00:00:00 | |
| KE7DJD | 2026-09-01 17:21:54 | 43.68799 | -116.25019 | 2° | 73km/h | 6808m | 6.1m/s | -20.0°C | 95.9% | 0hPa | 0V | 00:00:00 | 00:00:00 | 00:00:00 | |
| KE7DJD | 2026-09-01 17:21:33 | 43.68460 | -116.25064 | 13° | 44km/h | 6693m | 5.5m/s | -18.9°C | 92.1% | 0hPa | 0V | 00:00:00 | 00:00:00 | 00:00:00 | |
| KE7DJD | 2026-09-01 17:21:13 | 43.68183 | -116.25101 | 21° | 62km/h | 6571m | 7.5m/s | -17.9°C | 79.4% | 0hPa | 0V | 00:00:00 | 00:00:00 | 00:00:00 | |
| KE7DJD | 2026-09-01 17:20:52 | 43.67885 | -116.25169 | 4° | 60km/h | 6457m | 7.7m/s | -16.8°C | 74.9% | 0hPa | 0V | 00:00:00 | 00:00:00 | 00:00:00 | |
| KE7DJD | 2026-09-01 17:20:31 | 43.67599 | -116.25241 | 2° | 46km/h | 6347m | 5.9m/s | -16.0°C | 75.0% | 0hPa | 0V | 00:00:00 | 00:00:00 | 00:00:00 | |
| KE7DJD | 2026-09-01 17:20:11 | 43.67328 | -116.25308 | 16° | 53km/h | 6237m | 5.4m/s | -15.1°C | 72.1% | 0hPa | 0V | 00:00:00 | 00:00:00 | 00:00:00 | |
| KE7DJD | 2026-09-01 17:19:51 | 43.67059 | -116.25330 | 6° | 55km/h | 6145m | 5.1m/s | -14.5°C | 76.7% | 0hPa | 0V | 00:00:00 | 00:00:00 | 00:00:00 | |
| KE7DJD | 2026-09-01 17:19:31 | 43.66794 | -116.25339 | 359° | 47km/h | 6056m | 5.0m/s | -14.0°C | 85.0% | 0hPa | 0V | 00:00:00 | 00:00:00 | 00:00:00 | |
| KE7DJD | 2026-09-01 17:18:51 | 43.66257 | -116.25317 | 5° | 55km/h | 5847m | 4.5m/s | -12.5°C | 86.9% | 0hPa | 0V | 00:00:00 | 00:00:00 | 00:00:00 | |
| KE7DJD | 2026-09-01 17:18:30 | 43.65972 | -116.25219 | 357° | 68km/h | 5722m | 6.1m/s | -11.5°C | 86.2% | 0hPa | 0V | 00:00:00 | 00:00:00 | 00:00:00 | |
| KE7DJD | 2026-09-01 17:18:10 | 43.65712 | -116.25086 | 336° | 49km/h | 5592m | 4.6m/s | -10.5°C | 81.9% | 0hPa | 0V | 00:00:00 | 00:00:00 | 00:00:00 | |
| KE7DJD | 2026-09-01 17:17:49 | 43.65435 | -116.24985 | 343° | 57km/h | 5498m | 6.1m/s | -9.8°C | 79.8% | 0hPa | 0V | 00:00:00 | 00:00:00 | 00:00:00 | |
| KE7DJD | 2026-09-01 17:17:28 | 43.65175 | -116.24855 | 333° | 51km/h | 5399m | 5.6m/s | -9.0°C | 78.5% | 0hPa | 0V | 00:00:00 | 00:00:00 | 00:00:00 | |
| KE7DJD | 2026-09-01 17:17:08 | 43.64931 | -116.24717 | 333° | 49km/h | 5302m | 4.1m/s | -8.2°C | 77.6% | 0hPa | 0V | 00:00:00 | 00:00:00 | 00:00:00 | |
| KE7DJD | 2026-09-01 17:16:48 | 43.64677 | -116.24572 | 335° | 69km/h | 5217m | 4.1m/s | -7.6°C | 78.2% | 0hPa | 0V | 00:00:00 | 00:00:00 | 00:00:00 | |
| KE7DJD | 2026-09-01 17:16:27 | 43.64389 | -116.24434 | 347° | 55km/h | 5111m | 4.0m/s | -7.0°C | 79.5% | 0hPa | 0V | 00:00:00 | 00:00:00 | 00:00:00 | |
| KE7DJD | 2026-09-01 17:16:07 | 43.64055 | -116.24301 | 342° | 82km/h | 5018m | 6.0m/s | -6.5°C | 79.6% | 0hPa | 0V | 00:00:00 | 00:00:00 | 00:00:00 | |
| KE7DJD | 2026-09-01 17:15:45 | 43.63706 | -116.24145 | 344° | 73km/h | 4912m | 4.7m/s | -5.7°C | 77.5% | 0hPa | 0V | 00:00:00 | 00:00:00 | 00:00:00 | |
| KE7DJD | 2026-09-01 17:15:24 | 43.63360 | -116.24006 | 344° | 75km/h | 4816m | 3.1m/s | -4.9°C | 78.7% | 0hPa | 0V | 00:00:00 | 00:00:00 | 00:00:00 | |
| KE7DJD | 2026-09-01 17:15:03 | 43.62994 | -116.23842 | 345° | 69km/h | 4731m | 4.2m/s | -4.1°C | 76.1% | 0hPa | 0V | 00:00:00 | 00:00:00 | 00:00:00 | |
| KE7DJD | 2026-09-01 17:14:42 | 43.62619 | -116.23679 | 343° | 69km/h | 4630m | 4.0m/s | -3.2°C | 75.6% | 0hPa | 0V | 00:00:00 | 00:00:00 | 00:00:00 | |
| KE7DJD | 2026-09-01 17:14:21 | 43.62247 | -116.23524 | 344° | 71km/h | 4545m | 5.0m/s | -2.7°C | 77.5% | 0hPa | 0V | 00:00:00 | 00:00:00 | 00:00:00 | |
| KE7DJD | 2026-09-01 17:14:00 | 43.61885 | -116.23351 | 338° | 80km/h | 4431m | 5.8m/s | -1.9°C | 77.6% | 0hPa | 0V | 00:00:00 | 00:00:00 | 00:00:00 | |
| KE7DJD | 2026-09-01 17:13:40 | 43.61558 | -116.23236 | 346° | 62km/h | 4331m | 4.6m/s | -1.2°C | 76.2% | 0hPa | 0V | 00:00:00 | 00:00:00 | 00:00:00 | |
| KE7DJD | 2026-09-01 17:13:20 | 43.61284 | -116.23128 | 351° | 51km/h | 4232m | 5.6m/s | -0.5°C | 75.8% | 0hPa | 0V | 00:00:00 | 00:00:00 | 00:00:00 | |
| KE7DJD | 2026-09-01 17:12:59 | 43.61005 | -116.23051 | 348° | 55km/h | 4122m | 3.7m/s | 0.1°C | 75.4% | 0hPa | 0V | 00:00:00 | 00:00:00 | 00:00:00 | |
| KE7DJD | 2026-09-01 17:12:39 | 43.60743 | -116.22943 | 332° | 55km/h | 4032m | 4.4m/s | 0.7°C | 73.5% | 0hPa | 0V | 00:00:00 | 00:00:00 | 00:00:00 | |
| KE7DJD | 2026-09-01 17:12:18 | 43.60503 | -116.22872 | 337° | 40km/h | 3916m | 5.4m/s | 1.5°C | 69.8% | 0hPa | 0V | 00:00:00 | 00:00:00 | 00:00:00 | |
| KE7DJD | 2026-09-01 17:11:57 | 43.60306 | -116.22809 | 336° | 37km/h | 3802m | 4.8m/s | 1.9°C | 66.4% | 0hPa | 0V | 00:00:00 | 00:00:00 | 00:00:00 | |
| KE7DJD | 2026-09-01 17:11:37 | 43.60141 | -116.22799 | 334° | 37km/h | 3699m | 6.4m/s | 2.5°C | 64.2% | 0hPa | 0V | 00:00:00 | 00:00:00 | 00:00:00 | |
| KE7DJD | 2026-09-01 17:11:16 | 43.59974 | -116.22843 | 17° | 46km/h | 3584m | 5.9m/s | 3.5°C | 63.9% | 0hPa | 0V | 00:00:00 | 00:00:00 | 00:00:00 | |
| KE7DJD | 2026-09-01 17:10:56 | 43.59812 | -116.22910 | 34° | 35km/h | 3466m | 5.6m/s | 4.2°C | 59.3% | 0hPa | 0V | 00:00:00 | 00:00:00 | 00:00:00 | |
| KE7DJD | 2026-09-01 17:10:35 | 43.59648 | -116.22918 | 16° | 15km/h | 3345m | 6.0m/s | 4.8°C | 62.6% | 0hPa | 0V | 00:00:00 | 00:00:00 | 00:00:00 | |
| KE7DJD | 2026-09-01 17:10:14 | 43.59525 | -116.22814 | 316° | 24km/h | 3236m | 7.0m/s | 5.5°C | 62.3% | 0hPa | 0V | 00:00:00 | 00:00:00 | 00:00:00 | |
| KE7DJD | 2026-09-01 17:09:53 | 43.59385 | -116.22756 | 322° | 27km/h | 3132m | 3.7m/s | 6.5°C | 59.6% | 0hPa | 0V | 00:00:00 | 00:00:00 | 00:00:00 | |
| KE7DJD | 2026-09-01 17:09:32 | 43.59246 | -116.22658 | 6° | 20km/h | 3034m | 4.5m/s | 7.4°C | 56.9% | 0hPa | 0V | 00:00:00 | 00:00:00 | 00:00:00 | |
| KE7DJD | 2026-09-01 17:09:11 | 43.59121 | -116.22659 | 21° | 27km/h | 2932m | 3.6m/s | 8.1°C | 56.4% | 0hPa | 0V | 00:00:00 | 00:00:00 | 00:00:00 | |
| KE7DJD | 2026-09-01 17:08:50 | 43.58947 | -116.22689 | 332° | 33km/h | 2832m | 6.4m/s | 8.9°C | 55.1% | 0hPa | 0V | 00:00:00 | 00:00:00 | 00:00:00 | |
| KE7DJD | 2026-09-01 17:08:30 | 43.58779 | -116.22664 | 346° | 51km/h | 2715m | 5.1m/s | 9.7°C | 56.1% | 0hPa | 0V | 00:00:00 | 00:00:00 | 00:00:00 | |
| KE7DJD | 2026-09-01 17:08:10 | 43.58565 | -116.22616 | 351° | 53km/h | 2602m | 5.7m/s | 10.7°C | 54.5% | 0hPa | 0V | 00:00:00 | 00:00:00 | 00:00:00 | |
| KE7DJD | 2026-09-01 17:07:48 | 43.58353 | -116.22545 | 356° | 47km/h | 2479m | 5.6m/s | 11.7°C | 54.7% | 0hPa | 0V | 00:00:00 | 00:00:00 | 00:00:00 | |
| KE7DJD | 2026-09-01 17:07:27 | 43.58130 | -116.22431 | 356° | 37km/h | 2346m | 7.2m/s | 13.0°C | 51.1% | 0hPa | 0V | 00:00:00 | 00:00:00 | 00:00:00 | |
| KE7DJD | 2026-09-01 17:07:06 | 43.57914 | -116.22279 | 318° | 35km/h | 2226m | 5.7m/s | 14.1°C | 48.6% | 0hPa | 0V | 00:00:00 | 00:00:00 | 00:00:00 | |
| KE7DJD | 2026-09-01 17:06:47 | 43.57737 | -116.22143 | 332° | 42km/h | 2085m | 7.3m/s | 15.2°C | 48.0% | 0hPa | 0V | 00:00:00 | 00:00:00 | 00:00:00 | |
| KE7DJD | 2026-09-01 17:06:25 | 43.57560 | -116.22039 | 328° | 26km/h | 1933m | 6.0m/s | 16.3°C | 48.5% | 0hPa | 0V | 00:00:00 | 00:00:00 | 00:00:00 | |
| KE7DJD | 2026-09-01 17:06:04 | 43.57390 | -116.21945 | 348° | 40km/h | 1794m | 6.3m/s | 17.6°C | 47.2% | 0hPa | 0V | 00:00:00 | 00:00:00 | 00:00:00 | |
| KE7DJD | 2026-09-01 17:05:44 | 43.57270 | -116.21857 | 295° | 24km/h | 1659m | 7.5m/s | 18.8°C | 44.7% | 0hPa | 0V | 00:00:00 | 00:00:00 | 00:00:00 | |
| KE7DJD | 2026-09-01 17:05:24 | 43.57212 | -116.21770 | 317° | 22km/h | 1493m | 9.8m/s | 0°C | 0% | 0hPa | 0V | 00:00:00 | 00:00:00 | 00:00:00 | |
| KE7DJD | 2026-09-01 17:05:04 | 43.57096 | -116.21664 | 292° | 22km/h | 1348m | 4.8m/s | 0°C | 0% | 0hPa | 0V | 00:00:00 | 00:00:00 | 00:00:00 |